<?xml version="1.0" encoding="UTF-8" standalone="no" ?>
<gpx xmlns="http://www.topografix.com/GPX/1/1" xmlns:xsi="http://www.w3.org/2001/XMLSchema-instance" xsi:schemaLocation="http://www.topografix.com/GPX/1/1 http://www.topografix.com/GPX/1/1/gpx.xsd" version="1.1" creator="VisuGPX - https://www.visugpx.com">
  <metadata>
    <name>24 03 19 VTT</name>
    <desc><![CDATA[24 03 19 randonnée VTT, près de BRAS]]></desc>
  </metadata>
  <trk>
    <name><![CDATA[2019-03-19 17:24:06 001]]></name>
    <trkseg>
      <trkpt lat="43.43973" lon="5.86036">
        <ele>339.96</ele>
        <time>2019-03-10T11:01:57Z</time>
      </trkpt>
      <trkpt lat="43.43973" lon="5.86036">
        <ele>339.96</ele>
        <time>2019-03-10T11:01:58Z</time>
      </trkpt>
      <trkpt lat="43.43973" lon="5.86036">
        <ele>345.25</ele>
        <time>2019-03-10T11:02:02Z</time>
      </trkpt>
      <trkpt lat="43.43973" lon="5.86036">
        <ele>345.25</ele>
        <time>2019-03-10T11:02:03Z</time>
      </trkpt>
      <trkpt lat="43.4397" lon="5.86034">
        <ele>344.29</ele>
        <time>2019-03-10T11:02:26Z</time>
      </trkpt>
      <trkpt lat="43.43967" lon="5.86033">
        <ele>345.73</ele>
        <time>2019-03-10T11:02:30Z</time>
      </trkpt>
      <trkpt lat="43.43965" lon="5.86021">
        <ele>346.69</ele>
        <time>2019-03-10T11:02:41Z</time>
      </trkpt>
      <trkpt lat="43.43962" lon="5.86024">
        <ele>345.25</ele>
        <time>2019-03-10T11:03:08Z</time>
      </trkpt>
      <trkpt lat="43.43964" lon="5.86025">
        <ele>346.69</ele>
        <time>2019-03-10T11:03:43Z</time>
      </trkpt>
      <trkpt lat="43.43963" lon="5.86024">
        <ele>347.17</ele>
        <time>2019-03-10T11:04:12Z</time>
      </trkpt>
      <trkpt lat="43.43961" lon="5.86021">
        <ele>346.21</ele>
        <time>2019-03-10T11:04:40Z</time>
      </trkpt>
      <trkpt lat="43.43961" lon="5.86021">
        <ele>346.21</ele>
        <time>2019-03-10T11:05:06Z</time>
      </trkpt>
      <trkpt lat="43.43961" lon="5.86021">
        <ele>346.21</ele>
        <time>2019-03-10T11:05:38Z</time>
      </trkpt>
      <trkpt lat="43.43961" lon="5.86022">
        <ele>346.21</ele>
        <time>2019-03-10T11:06:06Z</time>
      </trkpt>
      <trkpt lat="43.4396" lon="5.86022">
        <ele>346.69</ele>
        <time>2019-03-10T11:06:30Z</time>
      </trkpt>
      <trkpt lat="43.43962" lon="5.86024">
        <ele>347.65</ele>
        <time>2019-03-10T11:07:05Z</time>
      </trkpt>
      <trkpt lat="43.43962" lon="5.86024">
        <ele>347.65</ele>
        <time>2019-03-10T11:07:06Z</time>
      </trkpt>
      <trkpt lat="43.43962" lon="5.86026">
        <ele>347.65</ele>
        <time>2019-03-10T11:07:39Z</time>
      </trkpt>
      <trkpt lat="43.43964" lon="5.86022">
        <ele>348.13</ele>
        <time>2019-03-10T11:08:20Z</time>
      </trkpt>
      <trkpt lat="43.43961" lon="5.86022">
        <ele>348.13</ele>
        <time>2019-03-10T11:08:58Z</time>
      </trkpt>
      <trkpt lat="43.4396" lon="5.86022">
        <ele>348.13</ele>
        <time>2019-03-10T11:09:35Z</time>
      </trkpt>
      <trkpt lat="43.4396" lon="5.86021">
        <ele>347.17</ele>
        <time>2019-03-10T11:09:58Z</time>
      </trkpt>
      <trkpt lat="43.43961" lon="5.8602">
        <ele>346.69</ele>
        <time>2019-03-10T11:10:33Z</time>
      </trkpt>
      <trkpt lat="43.43961" lon="5.86019">
        <ele>348.13</ele>
        <time>2019-03-10T11:11:11Z</time>
      </trkpt>
      <trkpt lat="43.43962" lon="5.86017">
        <ele>348.13</ele>
        <time>2019-03-10T11:11:46Z</time>
      </trkpt>
      <trkpt lat="43.4396" lon="5.86018">
        <ele>348.13</ele>
        <time>2019-03-10T11:12:27Z</time>
      </trkpt>
      <trkpt lat="43.43961" lon="5.8602">
        <ele>348.62</ele>
        <time>2019-03-10T11:12:55Z</time>
      </trkpt>
      <trkpt lat="43.43959" lon="5.86019">
        <ele>348.62</ele>
        <time>2019-03-10T11:13:27Z</time>
      </trkpt>
      <trkpt lat="43.43959" lon="5.8602">
        <ele>348.62</ele>
        <time>2019-03-10T11:13:56Z</time>
      </trkpt>
      <trkpt lat="43.43961" lon="5.86017">
        <ele>348.62</ele>
        <time>2019-03-10T11:14:30Z</time>
      </trkpt>
      <trkpt lat="43.4396" lon="5.86017">
        <ele>349.1</ele>
        <time>2019-03-10T11:15:06Z</time>
      </trkpt>
      <trkpt lat="43.4396" lon="5.86018">
        <ele>349.1</ele>
        <time>2019-03-10T11:15:36Z</time>
      </trkpt>
      <trkpt lat="43.4396" lon="5.86018">
        <ele>349.58</ele>
        <time>2019-03-10T11:16:10Z</time>
      </trkpt>
      <trkpt lat="43.43957" lon="5.86015">
        <ele>349.58</ele>
        <time>2019-03-10T11:16:45Z</time>
      </trkpt>
      <trkpt lat="43.43954" lon="5.86016">
        <ele>348.62</ele>
        <time>2019-03-10T11:17:19Z</time>
      </trkpt>
      <trkpt lat="43.43957" lon="5.86016">
        <ele>348.62</ele>
        <time>2019-03-10T11:17:49Z</time>
      </trkpt>
      <trkpt lat="43.4396" lon="5.86016">
        <ele>350.06</ele>
        <time>2019-03-10T11:18:06Z</time>
      </trkpt>
      <trkpt lat="43.43964" lon="5.8602">
        <ele>350.54</ele>
        <time>2019-03-10T11:18:43Z</time>
      </trkpt>
      <trkpt lat="43.43963" lon="5.86021">
        <ele>350.54</ele>
        <time>2019-03-10T11:19:13Z</time>
      </trkpt>
      <trkpt lat="43.43964" lon="5.86023">
        <ele>351.02</ele>
        <time>2019-03-10T11:19:45Z</time>
      </trkpt>
      <trkpt lat="43.43961" lon="5.86021">
        <ele>351.02</ele>
        <time>2019-03-10T11:20:16Z</time>
      </trkpt>
      <trkpt lat="43.43962" lon="5.86022">
        <ele>350.06</ele>
        <time>2019-03-10T11:20:52Z</time>
      </trkpt>
      <trkpt lat="43.43964" lon="5.86024">
        <ele>350.06</ele>
        <time>2019-03-10T11:21:22Z</time>
      </trkpt>
      <trkpt lat="43.43965" lon="5.86025">
        <ele>351.02</ele>
        <time>2019-03-10T11:21:56Z</time>
      </trkpt>
      <trkpt lat="43.43962" lon="5.86025">
        <ele>351.5</ele>
        <time>2019-03-10T11:22:24Z</time>
      </trkpt>
      <trkpt lat="43.43962" lon="5.86024">
        <ele>351.5</ele>
        <time>2019-03-10T11:22:59Z</time>
      </trkpt>
      <trkpt lat="43.43961" lon="5.86023">
        <ele>351.5</ele>
        <time>2019-03-10T11:23:30Z</time>
      </trkpt>
      <trkpt lat="43.4396" lon="5.86024">
        <ele>351.5</ele>
        <time>2019-03-10T11:24:05Z</time>
      </trkpt>
      <trkpt lat="43.43962" lon="5.86025">
        <ele>350.54</ele>
        <time>2019-03-10T11:24:34Z</time>
      </trkpt>
      <trkpt lat="43.4396" lon="5.86025">
        <ele>350.54</ele>
        <time>2019-03-10T11:25:06Z</time>
      </trkpt>
      <trkpt lat="43.43961" lon="5.86025">
        <ele>350.54</ele>
        <time>2019-03-10T11:25:41Z</time>
      </trkpt>
      <trkpt lat="43.43961" lon="5.86025">
        <ele>351.5</ele>
        <time>2019-03-10T11:25:47Z</time>
      </trkpt>
      <trkpt lat="43.43961" lon="5.86023">
        <ele>350.54</ele>
        <time>2019-03-10T11:26:19Z</time>
      </trkpt>
      <trkpt lat="43.43961" lon="5.8602">
        <ele>350.54</ele>
        <time>2019-03-10T11:26:57Z</time>
      </trkpt>
      <trkpt lat="43.43959" lon="5.86019">
        <ele>351.5</ele>
        <time>2019-03-10T11:27:31Z</time>
      </trkpt>
      <trkpt lat="43.43959" lon="5.8602">
        <ele>351.5</ele>
        <time>2019-03-10T11:28:02Z</time>
      </trkpt>
      <trkpt lat="43.43961" lon="5.86019">
        <ele>350.54</ele>
        <time>2019-03-10T11:28:35Z</time>
      </trkpt>
      <trkpt lat="43.43961" lon="5.8602">
        <ele>351.5</ele>
        <time>2019-03-10T11:28:41Z</time>
      </trkpt>
      <trkpt lat="43.43963" lon="5.86023">
        <ele>352.46</ele>
        <time>2019-03-10T11:29:14Z</time>
      </trkpt>
      <trkpt lat="43.43962" lon="5.86022">
        <ele>351.5</ele>
        <time>2019-03-10T11:29:43Z</time>
      </trkpt>
      <trkpt lat="43.43962" lon="5.86023">
        <ele>351.5</ele>
        <time>2019-03-10T11:30:13Z</time>
      </trkpt>
      <trkpt lat="43.43963" lon="5.86022">
        <ele>351.5</ele>
        <time>2019-03-10T11:30:49Z</time>
      </trkpt>
      <trkpt lat="43.43963" lon="5.86024">
        <ele>351.02</ele>
        <time>2019-03-10T11:31:27Z</time>
      </trkpt>
      <trkpt lat="43.43963" lon="5.86024">
        <ele>351.98</ele>
        <time>2019-03-10T11:31:54Z</time>
      </trkpt>
      <trkpt lat="43.43964" lon="5.86024">
        <ele>351.98</ele>
        <time>2019-03-10T11:32:20Z</time>
      </trkpt>
      <trkpt lat="43.43963" lon="5.86024">
        <ele>351.98</ele>
        <time>2019-03-10T11:32:51Z</time>
      </trkpt>
      <trkpt lat="43.43962" lon="5.86025">
        <ele>351.98</ele>
        <time>2019-03-10T11:33:22Z</time>
      </trkpt>
      <trkpt lat="43.43962" lon="5.86025">
        <ele>351.98</ele>
        <time>2019-03-10T11:33:53Z</time>
      </trkpt>
      <trkpt lat="43.43962" lon="5.86024">
        <ele>352.46</ele>
        <time>2019-03-10T11:34:23Z</time>
      </trkpt>
      <trkpt lat="43.43964" lon="5.86024">
        <ele>352.46</ele>
        <time>2019-03-10T11:34:51Z</time>
      </trkpt>
      <trkpt lat="43.43962" lon="5.86023">
        <ele>350.54</ele>
        <time>2019-03-10T11:35:16Z</time>
      </trkpt>
      <trkpt lat="43.43961" lon="5.86022">
        <ele>352.46</ele>
        <time>2019-03-10T11:35:43Z</time>
      </trkpt>
      <trkpt lat="43.43961" lon="5.86021">
        <ele>352.46</ele>
        <time>2019-03-10T11:36:01Z</time>
      </trkpt>
      <trkpt lat="43.43961" lon="5.86021">
        <ele>352.94</ele>
        <time>2019-03-10T11:36:09Z</time>
      </trkpt>
      <trkpt lat="43.43961" lon="5.86021">
        <ele>351.5</ele>
        <time>2019-03-10T11:36:17Z</time>
      </trkpt>
      <trkpt lat="43.43961" lon="5.86021">
        <ele>351.5</ele>
        <time>2019-03-10T11:36:24Z</time>
      </trkpt>
      <trkpt lat="43.43961" lon="5.86021">
        <ele>351.98</ele>
        <time>2019-03-10T11:36:45Z</time>
      </trkpt>
      <trkpt lat="43.43961" lon="5.86021">
        <ele>351.5</ele>
        <time>2019-03-10T11:37:11Z</time>
      </trkpt>
      <trkpt lat="43.4396" lon="5.86021">
        <ele>352.46</ele>
        <time>2019-03-10T11:37:40Z</time>
      </trkpt>
      <trkpt lat="43.4396" lon="5.86021">
        <ele>351.5</ele>
        <time>2019-03-10T11:37:53Z</time>
      </trkpt>
      <trkpt lat="43.4396" lon="5.86021">
        <ele>352.46</ele>
        <time>2019-03-10T11:38:16Z</time>
      </trkpt>
      <trkpt lat="43.4396" lon="5.8602">
        <ele>351.5</ele>
        <time>2019-03-10T11:38:47Z</time>
      </trkpt>
      <trkpt lat="43.4396" lon="5.86021">
        <ele>352.46</ele>
        <time>2019-03-10T11:39:11Z</time>
      </trkpt>
      <trkpt lat="43.43962" lon="5.86022">
        <ele>352.46</ele>
        <time>2019-03-10T11:39:42Z</time>
      </trkpt>
      <trkpt lat="43.43961" lon="5.86021">
        <ele>352.46</ele>
        <time>2019-03-10T11:40:11Z</time>
      </trkpt>
      <trkpt lat="43.43961" lon="5.86021">
        <ele>351.5</ele>
        <time>2019-03-10T11:40:17Z</time>
      </trkpt>
      <trkpt lat="43.4396" lon="5.8602">
        <ele>351.5</ele>
        <time>2019-03-10T11:40:45Z</time>
      </trkpt>
      <trkpt lat="43.43959" lon="5.8602">
        <ele>351.02</ele>
        <time>2019-03-10T11:41:07Z</time>
      </trkpt>
      <trkpt lat="43.43958" lon="5.86019">
        <ele>351.02</ele>
        <time>2019-03-10T11:41:37Z</time>
      </trkpt>
      <trkpt lat="43.43958" lon="5.86019">
        <ele>351.02</ele>
        <time>2019-03-10T11:41:57Z</time>
      </trkpt>
      <trkpt lat="43.43959" lon="5.86019">
        <ele>351.02</ele>
        <time>2019-03-10T11:42:21Z</time>
      </trkpt>
      <trkpt lat="43.43959" lon="5.86019">
        <ele>352.94</ele>
        <time>2019-03-10T11:42:26Z</time>
      </trkpt>
      <trkpt lat="43.43959" lon="5.86019">
        <ele>351.02</ele>
        <time>2019-03-10T11:42:33Z</time>
      </trkpt>
      <trkpt lat="43.43959" lon="5.8602">
        <ele>350.54</ele>
        <time>2019-03-10T11:43:03Z</time>
      </trkpt>
      <trkpt lat="43.43961" lon="5.86022">
        <ele>350.54</ele>
        <time>2019-03-10T11:43:33Z</time>
      </trkpt>
      <trkpt lat="43.43961" lon="5.86022">
        <ele>350.54</ele>
        <time>2019-03-10T11:43:56Z</time>
      </trkpt>
      <trkpt lat="43.43961" lon="5.86023">
        <ele>350.54</ele>
        <time>2019-03-10T11:44:23Z</time>
      </trkpt>
      <trkpt lat="43.4396" lon="5.86023">
        <ele>351.98</ele>
        <time>2019-03-10T11:44:47Z</time>
      </trkpt>
      <trkpt lat="43.43961" lon="5.86022">
        <ele>351.98</ele>
        <time>2019-03-10T11:45:19Z</time>
      </trkpt>
      <trkpt lat="43.43961" lon="5.86024">
        <ele>351.98</ele>
        <time>2019-03-10T11:45:48Z</time>
      </trkpt>
      <trkpt lat="43.43961" lon="5.86024">
        <ele>352.46</ele>
        <time>2019-03-10T11:46:13Z</time>
      </trkpt>
      <trkpt lat="43.43961" lon="5.86025">
        <ele>351.5</ele>
        <time>2019-03-10T11:46:41Z</time>
      </trkpt>
      <trkpt lat="43.43959" lon="5.86025">
        <ele>351.5</ele>
        <time>2019-03-10T11:47:07Z</time>
      </trkpt>
      <trkpt lat="43.4396" lon="5.86025">
        <ele>351.5</ele>
        <time>2019-03-10T11:47:30Z</time>
      </trkpt>
      <trkpt lat="43.43962" lon="5.86024">
        <ele>351.5</ele>
        <time>2019-03-10T11:47:57Z</time>
      </trkpt>
      <trkpt lat="43.43962" lon="5.86024">
        <ele>351.98</ele>
        <time>2019-03-10T11:48:23Z</time>
      </trkpt>
      <trkpt lat="43.43961" lon="5.86024">
        <ele>351.98</ele>
        <time>2019-03-10T11:48:45Z</time>
      </trkpt>
      <trkpt lat="43.43961" lon="5.86024">
        <ele>352.94</ele>
        <time>2019-03-10T11:49:11Z</time>
      </trkpt>
      <trkpt lat="43.43963" lon="5.86026">
        <ele>352.94</ele>
        <time>2019-03-10T11:49:43Z</time>
      </trkpt>
      <trkpt lat="43.43962" lon="5.86026">
        <ele>353.9</ele>
        <time>2019-03-10T11:50:09Z</time>
      </trkpt>
      <trkpt lat="43.43961" lon="5.86026">
        <ele>351.98</ele>
        <time>2019-03-10T11:50:21Z</time>
      </trkpt>
      <trkpt lat="43.43961" lon="5.86026">
        <ele>353.42</ele>
        <time>2019-03-10T11:50:52Z</time>
      </trkpt>
      <trkpt lat="43.4396" lon="5.86024">
        <ele>353.42</ele>
        <time>2019-03-10T11:51:18Z</time>
      </trkpt>
      <trkpt lat="43.43959" lon="5.86024">
        <ele>354.38</ele>
        <time>2019-03-10T11:51:51Z</time>
      </trkpt>
      <trkpt lat="43.43959" lon="5.86025">
        <ele>353.9</ele>
        <time>2019-03-10T11:52:24Z</time>
      </trkpt>
      <trkpt lat="43.4396" lon="5.86024">
        <ele>352.94</ele>
        <time>2019-03-10T11:52:53Z</time>
      </trkpt>
      <trkpt lat="43.43958" lon="5.86023">
        <ele>352.94</ele>
        <time>2019-03-10T11:53:30Z</time>
      </trkpt>
      <trkpt lat="43.43959" lon="5.86022">
        <ele>353.9</ele>
        <time>2019-03-10T11:53:51Z</time>
      </trkpt>
      <trkpt lat="43.43959" lon="5.86023">
        <ele>353.9</ele>
        <time>2019-03-10T11:54:25Z</time>
      </trkpt>
      <trkpt lat="43.43958" lon="5.86022">
        <ele>353.9</ele>
        <time>2019-03-10T11:54:59Z</time>
      </trkpt>
      <trkpt lat="43.43959" lon="5.86022">
        <ele>353.9</ele>
        <time>2019-03-10T11:55:34Z</time>
      </trkpt>
      <trkpt lat="43.4396" lon="5.86022">
        <ele>353.9</ele>
        <time>2019-03-10T11:56:08Z</time>
      </trkpt>
      <trkpt lat="43.43961" lon="5.86021">
        <ele>353.9</ele>
        <time>2019-03-10T11:56:41Z</time>
      </trkpt>
      <trkpt lat="43.43963" lon="5.8602">
        <ele>353.9</ele>
        <time>2019-03-10T11:57:08Z</time>
      </trkpt>
      <trkpt lat="43.43964" lon="5.86021">
        <ele>353.9</ele>
        <time>2019-03-10T11:57:43Z</time>
      </trkpt>
      <trkpt lat="43.43965" lon="5.86023">
        <ele>353.9</ele>
        <time>2019-03-10T11:58:17Z</time>
      </trkpt>
      <trkpt lat="43.43965" lon="5.86022">
        <ele>353.9</ele>
        <time>2019-03-10T11:58:58Z</time>
      </trkpt>
      <trkpt lat="43.43963" lon="5.86024">
        <ele>353.9</ele>
        <time>2019-03-10T11:59:37Z</time>
      </trkpt>
      <trkpt lat="43.43962" lon="5.86021">
        <ele>353.9</ele>
        <time>2019-03-10T12:00:19Z</time>
      </trkpt>
      <trkpt lat="43.43962" lon="5.86022">
        <ele>354.86</ele>
        <time>2019-03-10T12:00:53Z</time>
      </trkpt>
      <trkpt lat="43.43961" lon="5.86022">
        <ele>353.42</ele>
        <time>2019-03-10T12:01:07Z</time>
      </trkpt>
      <trkpt lat="43.43963" lon="5.86022">
        <ele>354.38</ele>
        <time>2019-03-10T12:01:44Z</time>
      </trkpt>
      <trkpt lat="43.43964" lon="5.86023">
        <ele>353.42</ele>
        <time>2019-03-10T12:01:48Z</time>
      </trkpt>
      <trkpt lat="43.43963" lon="5.86022">
        <ele>354.38</ele>
        <time>2019-03-10T12:02:26Z</time>
      </trkpt>
      <trkpt lat="43.43963" lon="5.86022">
        <ele>354.38</ele>
        <time>2019-03-10T12:03:00Z</time>
      </trkpt>
      <trkpt lat="43.43962" lon="5.86021">
        <ele>354.38</ele>
        <time>2019-03-10T12:03:33Z</time>
      </trkpt>
      <trkpt lat="43.43962" lon="5.86021">
        <ele>354.38</ele>
        <time>2019-03-10T12:04:11Z</time>
      </trkpt>
      <trkpt lat="43.43963" lon="5.8602">
        <ele>354.38</ele>
        <time>2019-03-10T12:04:48Z</time>
      </trkpt>
      <trkpt lat="43.43965" lon="5.86019">
        <ele>354.38</ele>
        <time>2019-03-10T12:05:29Z</time>
      </trkpt>
      <trkpt lat="43.43965" lon="5.86021">
        <ele>354.38</ele>
        <time>2019-03-10T12:05:58Z</time>
      </trkpt>
      <trkpt lat="43.43966" lon="5.86019">
        <ele>354.86</ele>
        <time>2019-03-10T12:06:30Z</time>
      </trkpt>
      <trkpt lat="43.43966" lon="5.86019">
        <ele>353.9</ele>
        <time>2019-03-10T12:06:37Z</time>
      </trkpt>
      <trkpt lat="43.43965" lon="5.8602">
        <ele>354.86</ele>
        <time>2019-03-10T12:07:14Z</time>
      </trkpt>
      <trkpt lat="43.43965" lon="5.8602">
        <ele>355.83</ele>
        <time>2019-03-10T12:07:23Z</time>
      </trkpt>
      <trkpt lat="43.43964" lon="5.86021">
        <ele>355.83</ele>
        <time>2019-03-10T12:07:44Z</time>
      </trkpt>
      <trkpt lat="43.43964" lon="5.86021">
        <ele>355.83</ele>
        <time>2019-03-10T12:08:22Z</time>
      </trkpt>
      <trkpt lat="43.43964" lon="5.86021">
        <ele>354.38</ele>
        <time>2019-03-10T12:08:25Z</time>
      </trkpt>
      <trkpt lat="43.43963" lon="5.8602">
        <ele>354.38</ele>
        <time>2019-03-10T12:09:03Z</time>
      </trkpt>
      <trkpt lat="43.43964" lon="5.86019">
        <ele>354.38</ele>
        <time>2019-03-10T12:09:18Z</time>
      </trkpt>
      <trkpt lat="43.43964" lon="5.86021">
        <ele>353.9</ele>
        <time>2019-03-10T12:09:53Z</time>
      </trkpt>
      <trkpt lat="43.43965" lon="5.86022">
        <ele>353.9</ele>
        <time>2019-03-10T12:10:25Z</time>
      </trkpt>
      <trkpt lat="43.43963" lon="5.86022">
        <ele>355.34</ele>
        <time>2019-03-10T12:11:01Z</time>
      </trkpt>
      <trkpt lat="43.43959" lon="5.86024">
        <ele>353.42</ele>
        <time>2019-03-10T12:11:39Z</time>
      </trkpt>
      <trkpt lat="43.4396" lon="5.86025">
        <ele>353.42</ele>
        <time>2019-03-10T12:12:12Z</time>
      </trkpt>
      <trkpt lat="43.43959" lon="5.86025">
        <ele>354.86</ele>
        <time>2019-03-10T12:12:42Z</time>
      </trkpt>
      <trkpt lat="43.43959" lon="5.86025">
        <ele>354.38</ele>
        <time>2019-03-10T12:12:43Z</time>
      </trkpt>
      <trkpt lat="43.43961" lon="5.86024">
        <ele>354.38</ele>
        <time>2019-03-10T12:13:16Z</time>
      </trkpt>
      <trkpt lat="43.43961" lon="5.86024">
        <ele>354.38</ele>
        <time>2019-03-10T12:13:53Z</time>
      </trkpt>
      <trkpt lat="43.43961" lon="5.86025">
        <ele>354.38</ele>
        <time>2019-03-10T12:14:27Z</time>
      </trkpt>
      <trkpt lat="43.43961" lon="5.86024">
        <ele>354.86</ele>
        <time>2019-03-10T12:14:57Z</time>
      </trkpt>
      <trkpt lat="43.43961" lon="5.86022">
        <ele>354.86</ele>
        <time>2019-03-10T12:15:22Z</time>
      </trkpt>
      <trkpt lat="43.43962" lon="5.86023">
        <ele>353.42</ele>
        <time>2019-03-10T12:15:47Z</time>
      </trkpt>
      <trkpt lat="43.43962" lon="5.86023">
        <ele>353.42</ele>
        <time>2019-03-10T12:16:20Z</time>
      </trkpt>
      <trkpt lat="43.43962" lon="5.86023">
        <ele>353.42</ele>
        <time>2019-03-10T12:16:47Z</time>
      </trkpt>
      <trkpt lat="43.43961" lon="5.86023">
        <ele>353.42</ele>
        <time>2019-03-10T12:17:15Z</time>
      </trkpt>
      <trkpt lat="43.43961" lon="5.86024">
        <ele>354.38</ele>
        <time>2019-03-10T12:17:29Z</time>
      </trkpt>
      <trkpt lat="43.43961" lon="5.86024">
        <ele>354.38</ele>
        <time>2019-03-10T12:18:02Z</time>
      </trkpt>
      <trkpt lat="43.43962" lon="5.86024">
        <ele>354.38</ele>
        <time>2019-03-10T12:18:03Z</time>
      </trkpt>
      <trkpt lat="43.43961" lon="5.86024">
        <ele>354.86</ele>
        <time>2019-03-10T12:18:40Z</time>
      </trkpt>
      <trkpt lat="43.43961" lon="5.86024">
        <ele>353.42</ele>
        <time>2019-03-10T12:18:42Z</time>
      </trkpt>
      <trkpt lat="43.4396" lon="5.86022">
        <ele>352.46</ele>
        <time>2019-03-10T12:19:13Z</time>
      </trkpt>
      <trkpt lat="43.43961" lon="5.86023">
        <ele>352.46</ele>
        <time>2019-03-10T12:19:42Z</time>
      </trkpt>
      <trkpt lat="43.4396" lon="5.86024">
        <ele>353.42</ele>
        <time>2019-03-10T12:20:15Z</time>
      </trkpt>
      <trkpt lat="43.4396" lon="5.86024">
        <ele>353.9</ele>
        <time>2019-03-10T12:20:46Z</time>
      </trkpt>
      <trkpt lat="43.4396" lon="5.86024">
        <ele>353.9</ele>
        <time>2019-03-10T12:21:18Z</time>
      </trkpt>
      <trkpt lat="43.43959" lon="5.86024">
        <ele>352.94</ele>
        <time>2019-03-10T12:21:35Z</time>
      </trkpt>
      <trkpt lat="43.43958" lon="5.86026">
        <ele>352.46</ele>
        <time>2019-03-10T12:22:06Z</time>
      </trkpt>
      <trkpt lat="43.43959" lon="5.86026">
        <ele>352.46</ele>
        <time>2019-03-10T12:22:35Z</time>
      </trkpt>
      <trkpt lat="43.43961" lon="5.86024">
        <ele>352.94</ele>
        <time>2019-03-10T12:23:16Z</time>
      </trkpt>
      <trkpt lat="43.43962" lon="5.86024">
        <ele>353.42</ele>
        <time>2019-03-10T12:23:36Z</time>
      </trkpt>
      <trkpt lat="43.43963" lon="5.86024">
        <ele>353.9</ele>
        <time>2019-03-10T12:23:58Z</time>
      </trkpt>
      <trkpt lat="43.43963" lon="5.86024">
        <ele>353.9</ele>
        <time>2019-03-10T12:24:40Z</time>
      </trkpt>
      <trkpt lat="43.43963" lon="5.86024">
        <ele>353.9</ele>
        <time>2019-03-10T12:25:16Z</time>
      </trkpt>
      <trkpt lat="43.43963" lon="5.86024">
        <ele>354.38</ele>
        <time>2019-03-10T12:25:46Z</time>
      </trkpt>
      <trkpt lat="43.43964" lon="5.86023">
        <ele>353.42</ele>
        <time>2019-03-10T12:26:21Z</time>
      </trkpt>
      <trkpt lat="43.43964" lon="5.86022">
        <ele>354.38</ele>
        <time>2019-03-10T12:26:32Z</time>
      </trkpt>
      <trkpt lat="43.43963" lon="5.86023">
        <ele>353.42</ele>
        <time>2019-03-10T12:27:04Z</time>
      </trkpt>
      <trkpt lat="43.43962" lon="5.86022">
        <ele>352.94</ele>
        <time>2019-03-10T12:27:43Z</time>
      </trkpt>
      <trkpt lat="43.43963" lon="5.86023">
        <ele>352.94</ele>
        <time>2019-03-10T12:28:17Z</time>
      </trkpt>
      <trkpt lat="43.43963" lon="5.86022">
        <ele>354.38</ele>
        <time>2019-03-10T12:28:47Z</time>
      </trkpt>
      <trkpt lat="43.43964" lon="5.86022">
        <ele>354.38</ele>
        <time>2019-03-10T12:29:31Z</time>
      </trkpt>
      <trkpt lat="43.43963" lon="5.86023">
        <ele>354.38</ele>
        <time>2019-03-10T12:30:10Z</time>
      </trkpt>
      <trkpt lat="43.43963" lon="5.86023">
        <ele>353.42</ele>
        <time>2019-03-10T12:30:25Z</time>
      </trkpt>
      <trkpt lat="43.43963" lon="5.86023">
        <ele>354.86</ele>
        <time>2019-03-10T12:30:31Z</time>
      </trkpt>
      <trkpt lat="43.43963" lon="5.86022">
        <ele>355.34</ele>
        <time>2019-03-10T12:31:04Z</time>
      </trkpt>
      <trkpt lat="43.43963" lon="5.86023">
        <ele>354.38</ele>
        <time>2019-03-10T12:31:31Z</time>
      </trkpt>
      <trkpt lat="43.43962" lon="5.86024">
        <ele>353.9</ele>
        <time>2019-03-10T12:32:09Z</time>
      </trkpt>
      <trkpt lat="43.43961" lon="5.86024">
        <ele>353.9</ele>
        <time>2019-03-10T12:32:43Z</time>
      </trkpt>
      <trkpt lat="43.43961" lon="5.86025">
        <ele>353.42</ele>
        <time>2019-03-10T12:33:10Z</time>
      </trkpt>
      <trkpt lat="43.43961" lon="5.86024">
        <ele>354.38</ele>
        <time>2019-03-10T12:33:36Z</time>
      </trkpt>
      <trkpt lat="43.4396" lon="5.86024">
        <ele>354.38</ele>
        <time>2019-03-10T12:34:11Z</time>
      </trkpt>
      <trkpt lat="43.43959" lon="5.86023">
        <ele>354.86</ele>
        <time>2019-03-10T12:34:49Z</time>
      </trkpt>
      <trkpt lat="43.4396" lon="5.86024">
        <ele>353.42</ele>
        <time>2019-03-10T12:35:15Z</time>
      </trkpt>
      <trkpt lat="43.43959" lon="5.86025">
        <ele>353.42</ele>
        <time>2019-03-10T12:35:51Z</time>
      </trkpt>
      <trkpt lat="43.4396" lon="5.86026">
        <ele>354.38</ele>
        <time>2019-03-10T12:36:28Z</time>
      </trkpt>
      <trkpt lat="43.43961" lon="5.86026">
        <ele>354.38</ele>
        <time>2019-03-10T12:36:57Z</time>
      </trkpt>
      <trkpt lat="43.43959" lon="5.86026">
        <ele>354.38</ele>
        <time>2019-03-10T12:37:34Z</time>
      </trkpt>
      <trkpt lat="43.43963" lon="5.86025">
        <ele>354.86</ele>
        <time>2019-03-10T12:38:05Z</time>
      </trkpt>
      <trkpt lat="43.43962" lon="5.86021">
        <ele>355.34</ele>
        <time>2019-03-10T12:38:41Z</time>
      </trkpt>
      <trkpt lat="43.43962" lon="5.8602">
        <ele>353.9</ele>
        <time>2019-03-10T12:38:54Z</time>
      </trkpt>
      <trkpt lat="43.43961" lon="5.86021">
        <ele>354.38</ele>
        <time>2019-03-10T12:39:05Z</time>
      </trkpt>
      <trkpt lat="43.43961" lon="5.86018">
        <ele>354.86</ele>
        <time>2019-03-10T12:39:41Z</time>
      </trkpt>
      <trkpt lat="43.4396" lon="5.86016">
        <ele>355.34</ele>
        <time>2019-03-10T12:40:19Z</time>
      </trkpt>
      <trkpt lat="43.4396" lon="5.86015">
        <ele>354.38</ele>
        <time>2019-03-10T12:40:42Z</time>
      </trkpt>
      <trkpt lat="43.43961" lon="5.86015">
        <ele>353.9</ele>
        <time>2019-03-10T12:41:17Z</time>
      </trkpt>
      <trkpt lat="43.43959" lon="5.86015">
        <ele>355.34</ele>
        <time>2019-03-10T12:41:54Z</time>
      </trkpt>
      <trkpt lat="43.43958" lon="5.86014">
        <ele>355.83</ele>
        <time>2019-03-10T12:42:21Z</time>
      </trkpt>
      <trkpt lat="43.43958" lon="5.86013">
        <ele>354.86</ele>
        <time>2019-03-10T12:42:42Z</time>
      </trkpt>
      <trkpt lat="43.43959" lon="5.8601">
        <ele>354.86</ele>
        <time>2019-03-10T12:43:17Z</time>
      </trkpt>
      <trkpt lat="43.43959" lon="5.86016">
        <ele>354.38</ele>
        <time>2019-03-10T12:43:51Z</time>
      </trkpt>
      <trkpt lat="43.4396" lon="5.86017">
        <ele>355.83</ele>
        <time>2019-03-10T12:44:30Z</time>
      </trkpt>
      <trkpt lat="43.43962" lon="5.8602">
        <ele>355.83</ele>
        <time>2019-03-10T12:45:04Z</time>
      </trkpt>
      <trkpt lat="43.4396" lon="5.8602">
        <ele>355.83</ele>
        <time>2019-03-10T12:45:37Z</time>
      </trkpt>
      <trkpt lat="43.4396" lon="5.86023">
        <ele>355.83</ele>
        <time>2019-03-10T12:46:04Z</time>
      </trkpt>
      <trkpt lat="43.4396" lon="5.86023">
        <ele>355.83</ele>
        <time>2019-03-10T12:46:32Z</time>
      </trkpt>
      <trkpt lat="43.43962" lon="5.86024">
        <ele>355.83</ele>
        <time>2019-03-10T12:47:06Z</time>
      </trkpt>
      <trkpt lat="43.43962" lon="5.86023">
        <ele>356.31</ele>
        <time>2019-03-10T12:47:42Z</time>
      </trkpt>
      <trkpt lat="43.43962" lon="5.86023">
        <ele>356.31</ele>
        <time>2019-03-10T12:48:15Z</time>
      </trkpt>
      <trkpt lat="43.43961" lon="5.86022">
        <ele>356.31</ele>
        <time>2019-03-10T12:48:50Z</time>
      </trkpt>
      <trkpt lat="43.43961" lon="5.86023">
        <ele>356.31</ele>
        <time>2019-03-10T12:49:23Z</time>
      </trkpt>
      <trkpt lat="43.43961" lon="5.86025">
        <ele>354.86</ele>
        <time>2019-03-10T12:49:57Z</time>
      </trkpt>
      <trkpt lat="43.4396" lon="5.86026">
        <ele>355.83</ele>
        <time>2019-03-10T12:50:26Z</time>
      </trkpt>
      <trkpt lat="43.43961" lon="5.86027">
        <ele>355.83</ele>
        <time>2019-03-10T12:50:59Z</time>
      </trkpt>
      <trkpt lat="43.43961" lon="5.86025">
        <ele>356.31</ele>
        <time>2019-03-10T12:51:31Z</time>
      </trkpt>
      <trkpt lat="43.4396" lon="5.86025">
        <ele>356.79</ele>
        <time>2019-03-10T12:51:58Z</time>
      </trkpt>
      <trkpt lat="43.43961" lon="5.86025">
        <ele>356.31</ele>
        <time>2019-03-10T12:52:28Z</time>
      </trkpt>
      <trkpt lat="43.4396" lon="5.86024">
        <ele>355.34</ele>
        <time>2019-03-10T12:53:02Z</time>
      </trkpt>
      <trkpt lat="43.43961" lon="5.86024">
        <ele>355.34</ele>
        <time>2019-03-10T12:53:37Z</time>
      </trkpt>
      <trkpt lat="43.43963" lon="5.86021">
        <ele>356.31</ele>
        <time>2019-03-10T12:54:07Z</time>
      </trkpt>
      <trkpt lat="43.4396" lon="5.86022">
        <ele>356.31</ele>
        <time>2019-03-10T12:54:34Z</time>
      </trkpt>
      <trkpt lat="43.43959" lon="5.86023">
        <ele>355.83</ele>
        <time>2019-03-10T12:55:04Z</time>
      </trkpt>
      <trkpt lat="43.43959" lon="5.86022">
        <ele>355.83</ele>
        <time>2019-03-10T12:55:38Z</time>
      </trkpt>
      <trkpt lat="43.43958" lon="5.86023">
        <ele>355.83</ele>
        <time>2019-03-10T12:56:08Z</time>
      </trkpt>
      <trkpt lat="43.43959" lon="5.86023">
        <ele>356.31</ele>
        <time>2019-03-10T12:56:44Z</time>
      </trkpt>
      <trkpt lat="43.43958" lon="5.86022">
        <ele>356.31</ele>
        <time>2019-03-10T12:57:06Z</time>
      </trkpt>
      <trkpt lat="43.43959" lon="5.86022">
        <ele>356.31</ele>
        <time>2019-03-10T12:57:36Z</time>
      </trkpt>
      <trkpt lat="43.43958" lon="5.86024">
        <ele>356.79</ele>
        <time>2019-03-10T12:57:58Z</time>
      </trkpt>
      <trkpt lat="43.4396" lon="5.86022">
        <ele>357.75</ele>
        <time>2019-03-10T12:58:28Z</time>
      </trkpt>
      <trkpt lat="43.43959" lon="5.86023">
        <ele>356.31</ele>
        <time>2019-03-10T12:59:01Z</time>
      </trkpt>
      <trkpt lat="43.43958" lon="5.86021">
        <ele>355.34</ele>
        <time>2019-03-10T12:59:34Z</time>
      </trkpt>
      <trkpt lat="43.43957" lon="5.86022">
        <ele>354.38</ele>
        <time>2019-03-10T13:00:02Z</time>
      </trkpt>
      <trkpt lat="43.43956" lon="5.86023">
        <ele>354.38</ele>
        <time>2019-03-10T13:00:31Z</time>
      </trkpt>
      <trkpt lat="43.43965" lon="5.86018">
        <ele>354.38</ele>
        <time>2019-03-10T13:00:56Z</time>
      </trkpt>
      <trkpt lat="43.43963" lon="5.8602">
        <ele>354.38</ele>
        <time>2019-03-10T13:01:30Z</time>
      </trkpt>
      <trkpt lat="43.4396" lon="5.86021">
        <ele>355.34</ele>
        <time>2019-03-10T13:02:10Z</time>
      </trkpt>
      <trkpt lat="43.43962" lon="5.8602">
        <ele>355.34</ele>
        <time>2019-03-10T13:02:36Z</time>
      </trkpt>
      <trkpt lat="43.4396" lon="5.8602">
        <ele>355.83</ele>
        <time>2019-03-10T13:03:04Z</time>
      </trkpt>
      <trkpt lat="43.4396" lon="5.86021">
        <ele>355.83</ele>
        <time>2019-03-10T13:03:30Z</time>
      </trkpt>
      <trkpt lat="43.4396" lon="5.8602">
        <ele>354.86</ele>
        <time>2019-03-10T13:03:36Z</time>
      </trkpt>
      <trkpt lat="43.4396" lon="5.8602">
        <ele>355.34</ele>
        <time>2019-03-10T13:04:11Z</time>
      </trkpt>
      <trkpt lat="43.43961" lon="5.8602">
        <ele>355.34</ele>
        <time>2019-03-10T13:04:36Z</time>
      </trkpt>
      <trkpt lat="43.43961" lon="5.86021">
        <ele>355.34</ele>
        <time>2019-03-10T13:05:04Z</time>
      </trkpt>
      <trkpt lat="43.43959" lon="5.86022">
        <ele>354.86</ele>
        <time>2019-03-10T13:05:38Z</time>
      </trkpt>
      <trkpt lat="43.43957" lon="5.86023">
        <ele>354.38</ele>
        <time>2019-03-10T13:06:01Z</time>
      </trkpt>
      <trkpt lat="43.43958" lon="5.86023">
        <ele>353.9</ele>
        <time>2019-03-10T13:06:26Z</time>
      </trkpt>
      <trkpt lat="43.43958" lon="5.86022">
        <ele>354.86</ele>
        <time>2019-03-10T13:06:45Z</time>
      </trkpt>
      <trkpt lat="43.43958" lon="5.86022">
        <ele>354.86</ele>
        <time>2019-03-10T13:07:13Z</time>
      </trkpt>
      <trkpt lat="43.43959" lon="5.86021">
        <ele>353.9</ele>
        <time>2019-03-10T13:07:51Z</time>
      </trkpt>
      <trkpt lat="43.43959" lon="5.8602">
        <ele>354.38</ele>
        <time>2019-03-10T13:08:18Z</time>
      </trkpt>
      <trkpt lat="43.43958" lon="5.8602">
        <ele>354.38</ele>
        <time>2019-03-10T13:08:53Z</time>
      </trkpt>
      <trkpt lat="43.43958" lon="5.86021">
        <ele>354.38</ele>
        <time>2019-03-10T13:09:26Z</time>
      </trkpt>
      <trkpt lat="43.43958" lon="5.86022">
        <ele>354.38</ele>
        <time>2019-03-10T13:09:57Z</time>
      </trkpt>
      <trkpt lat="43.43959" lon="5.86022">
        <ele>353.9</ele>
        <time>2019-03-10T13:10:26Z</time>
      </trkpt>
      <trkpt lat="43.43959" lon="5.86022">
        <ele>353.9</ele>
        <time>2019-03-10T13:10:54Z</time>
      </trkpt>
      <trkpt lat="43.4396" lon="5.86021">
        <ele>352.94</ele>
        <time>2019-03-10T13:11:26Z</time>
      </trkpt>
      <trkpt lat="43.4396" lon="5.86021">
        <ele>352.94</ele>
        <time>2019-03-10T13:11:27Z</time>
      </trkpt>
      <trkpt lat="43.43961" lon="5.86021">
        <ele>353.9</ele>
        <time>2019-03-10T13:11:50Z</time>
      </trkpt>
      <trkpt lat="43.43961" lon="5.8602">
        <ele>354.38</ele>
        <time>2019-03-10T13:12:21Z</time>
      </trkpt>
      <trkpt lat="43.43961" lon="5.86021">
        <ele>352.94</ele>
        <time>2019-03-10T13:12:28Z</time>
      </trkpt>
      <trkpt lat="43.43961" lon="5.8602">
        <ele>354.38</ele>
        <time>2019-03-10T13:12:33Z</time>
      </trkpt>
      <trkpt lat="43.43962" lon="5.8602">
        <ele>352.94</ele>
        <time>2019-03-10T13:13:02Z</time>
      </trkpt>
      <trkpt lat="43.43962" lon="5.86021">
        <ele>354.38</ele>
        <time>2019-03-10T13:13:28Z</time>
      </trkpt>
      <trkpt lat="43.43963" lon="5.86021">
        <ele>354.38</ele>
        <time>2019-03-10T13:13:54Z</time>
      </trkpt>
      <trkpt lat="43.43962" lon="5.86021">
        <ele>352.94</ele>
        <time>2019-03-10T13:14:20Z</time>
      </trkpt>
      <trkpt lat="43.43962" lon="5.86022">
        <ele>352.94</ele>
        <time>2019-03-10T13:14:52Z</time>
      </trkpt>
      <trkpt lat="43.43964" lon="5.86021">
        <ele>352.94</ele>
        <time>2019-03-10T13:15:32Z</time>
      </trkpt>
      <trkpt lat="43.43963" lon="5.86021">
        <ele>353.9</ele>
        <time>2019-03-10T13:15:47Z</time>
      </trkpt>
      <trkpt lat="43.43963" lon="5.8602">
        <ele>351.98</ele>
        <time>2019-03-10T13:15:54Z</time>
      </trkpt>
      <trkpt lat="43.43962" lon="5.86019">
        <ele>352.94</ele>
        <time>2019-03-10T13:16:29Z</time>
      </trkpt>
      <trkpt lat="43.43962" lon="5.8602">
        <ele>353.42</ele>
        <time>2019-03-10T13:16:48Z</time>
      </trkpt>
      <trkpt lat="43.43961" lon="5.86021">
        <ele>351.98</ele>
        <time>2019-03-10T13:17:06Z</time>
      </trkpt>
      <trkpt lat="43.43961" lon="5.86019">
        <ele>352.94</ele>
        <time>2019-03-10T13:17:44Z</time>
      </trkpt>
      <trkpt lat="43.43961" lon="5.86016">
        <ele>353.42</ele>
        <time>2019-03-10T13:18:18Z</time>
      </trkpt>
      <trkpt lat="43.43958" lon="5.86018">
        <ele>353.42</ele>
        <time>2019-03-10T13:18:47Z</time>
      </trkpt>
      <trkpt lat="43.43959" lon="5.86017">
        <ele>351.98</ele>
        <time>2019-03-10T13:19:07Z</time>
      </trkpt>
      <trkpt lat="43.43959" lon="5.86019">
        <ele>353.42</ele>
        <time>2019-03-10T13:19:44Z</time>
      </trkpt>
      <trkpt lat="43.43959" lon="5.86019">
        <ele>351.98</ele>
        <time>2019-03-10T13:20:08Z</time>
      </trkpt>
      <trkpt lat="43.4396" lon="5.86019">
        <ele>353.42</ele>
        <time>2019-03-10T13:20:29Z</time>
      </trkpt>
      <trkpt lat="43.43958" lon="5.86018">
        <ele>352.94</ele>
        <time>2019-03-10T13:20:58Z</time>
      </trkpt>
      <trkpt lat="43.43957" lon="5.86018">
        <ele>352.46</ele>
        <time>2019-03-10T13:21:37Z</time>
      </trkpt>
      <trkpt lat="43.43956" lon="5.86017">
        <ele>351.98</ele>
        <time>2019-03-10T13:22:14Z</time>
      </trkpt>
      <trkpt lat="43.43957" lon="5.86017">
        <ele>353.42</ele>
        <time>2019-03-10T13:22:43Z</time>
      </trkpt>
      <trkpt lat="43.43957" lon="5.86017">
        <ele>352.46</ele>
        <time>2019-03-10T13:22:47Z</time>
      </trkpt>
      <trkpt lat="43.43958" lon="5.86017">
        <ele>352.46</ele>
        <time>2019-03-10T13:23:10Z</time>
      </trkpt>
      <trkpt lat="43.43959" lon="5.86018">
        <ele>353.42</ele>
        <time>2019-03-10T13:23:24Z</time>
      </trkpt>
      <trkpt lat="43.4396" lon="5.86019">
        <ele>353.9</ele>
        <time>2019-03-10T13:23:43Z</time>
      </trkpt>
      <trkpt lat="43.4396" lon="5.86023">
        <ele>352.46</ele>
        <time>2019-03-10T13:23:53Z</time>
      </trkpt>
      <trkpt lat="43.4396" lon="5.86023">
        <ele>352.46</ele>
        <time>2019-03-10T13:23:56Z</time>
      </trkpt>
      <trkpt lat="43.43963" lon="5.86032">
        <ele>313.05</ele>
        <time>2019-03-11T06:08:33Z</time>
      </trkpt>
      <trkpt lat="43.43962" lon="5.86026">
        <ele>316.89</ele>
        <time>2019-03-11T06:08:55Z</time>
      </trkpt>
      <trkpt lat="43.43962" lon="5.86024">
        <ele>320.74</ele>
        <time>2019-03-11T06:08:58Z</time>
      </trkpt>
      <trkpt lat="43.43962" lon="5.86023">
        <ele>323.62</ele>
        <time>2019-03-11T06:09:01Z</time>
      </trkpt>
      <trkpt lat="43.43962" lon="5.86023">
        <ele>326.99</ele>
        <time>2019-03-11T06:09:04Z</time>
      </trkpt>
      <trkpt lat="43.43962" lon="5.86024">
        <ele>330.83</ele>
        <time>2019-03-11T06:09:08Z</time>
      </trkpt>
      <trkpt lat="43.43962" lon="5.86024">
        <ele>332.27</ele>
        <time>2019-03-11T06:09:10Z</time>
      </trkpt>
      <trkpt lat="43.43962" lon="5.86024">
        <ele>335.16</ele>
        <time>2019-03-11T06:09:14Z</time>
      </trkpt>
      <trkpt lat="43.43961" lon="5.86024">
        <ele>338.52</ele>
        <time>2019-03-11T06:09:19Z</time>
      </trkpt>
      <trkpt lat="43.43961" lon="5.86024">
        <ele>342.37</ele>
        <time>2019-03-11T06:09:25Z</time>
      </trkpt>
      <trkpt lat="43.43961" lon="5.86023">
        <ele>345.73</ele>
        <time>2019-03-11T06:09:32Z</time>
      </trkpt>
      <trkpt lat="43.43961" lon="5.86024">
        <ele>346.69</ele>
        <time>2019-03-11T06:09:35Z</time>
      </trkpt>
      <trkpt lat="43.43961" lon="5.86025">
        <ele>350.06</ele>
        <time>2019-03-11T06:09:45Z</time>
      </trkpt>
      <trkpt lat="43.43961" lon="5.86026">
        <ele>352.94</ele>
        <time>2019-03-11T06:10:03Z</time>
      </trkpt>
      <trkpt lat="43.43962" lon="5.86025">
        <ele>354.86</ele>
        <time>2019-03-11T06:10:39Z</time>
      </trkpt>
      <trkpt lat="43.43962" lon="5.86026">
        <ele>355.34</ele>
        <time>2019-03-11T06:11:16Z</time>
      </trkpt>
      <trkpt lat="43.43963" lon="5.86025">
        <ele>355.34</ele>
        <time>2019-03-11T06:11:45Z</time>
      </trkpt>
      <trkpt lat="43.43963" lon="5.86025">
        <ele>354.38</ele>
        <time>2019-03-11T06:12:19Z</time>
      </trkpt>
      <trkpt lat="43.43962" lon="5.86025">
        <ele>355.34</ele>
        <time>2019-03-11T06:12:46Z</time>
      </trkpt>
      <trkpt lat="43.43963" lon="5.86025">
        <ele>355.34</ele>
        <time>2019-03-11T06:13:10Z</time>
      </trkpt>
      <trkpt lat="43.43963" lon="5.86026">
        <ele>353.9</ele>
        <time>2019-03-11T06:13:35Z</time>
      </trkpt>
      <trkpt lat="43.43965" lon="5.86025">
        <ele>353.42</ele>
        <time>2019-03-11T06:14:03Z</time>
      </trkpt>
      <trkpt lat="43.43964" lon="5.86025">
        <ele>353.42</ele>
        <time>2019-03-11T06:14:36Z</time>
      </trkpt>
      <trkpt lat="43.43963" lon="5.86026">
        <ele>353.42</ele>
        <time>2019-03-11T06:15:10Z</time>
      </trkpt>
      <trkpt lat="43.43963" lon="5.86026">
        <ele>354.86</ele>
        <time>2019-03-11T06:15:14Z</time>
      </trkpt>
      <trkpt lat="43.43962" lon="5.86027">
        <ele>353.42</ele>
        <time>2019-03-11T06:15:33Z</time>
      </trkpt>
      <trkpt lat="43.47185" lon="5.94767">
        <ele>191.92</ele>
        <time>2019-03-19T13:10:33Z</time>
      </trkpt>
      <trkpt lat="43.47178" lon="5.94709">
        <ele>191.92</ele>
        <time>2019-03-19T13:10:47Z</time>
      </trkpt>
      <trkpt lat="43.47176" lon="5.94705">
        <ele>192.4</ele>
        <time>2019-03-19T13:10:54Z</time>
      </trkpt>
      <trkpt lat="43.4717" lon="5.94701">
        <ele>192.88</ele>
        <time>2019-03-19T13:11:03Z</time>
      </trkpt>
      <trkpt lat="43.47158" lon="5.94697">
        <ele>193.36</ele>
        <time>2019-03-19T13:11:17Z</time>
      </trkpt>
      <trkpt lat="43.47155" lon="5.94694">
        <ele>193.36</ele>
        <time>2019-03-19T13:11:21Z</time>
      </trkpt>
      <trkpt lat="43.47144" lon="5.94682">
        <ele>193.36</ele>
        <time>2019-03-19T13:11:35Z</time>
      </trkpt>
      <trkpt lat="43.47142" lon="5.94678">
        <ele>193.36</ele>
        <time>2019-03-19T13:11:38Z</time>
      </trkpt>
      <trkpt lat="43.47138" lon="5.94655">
        <ele>193.84</ele>
        <time>2019-03-19T13:11:53Z</time>
      </trkpt>
      <trkpt lat="43.47136" lon="5.94641">
        <ele>193.84</ele>
        <time>2019-03-19T13:12:05Z</time>
      </trkpt>
      <trkpt lat="43.47126" lon="5.94552">
        <ele>197.21</ele>
        <time>2019-03-19T13:12:12Z</time>
      </trkpt>
      <trkpt lat="43.47126" lon="5.94549">
        <ele>200.09</ele>
        <time>2019-03-19T13:12:13Z</time>
      </trkpt>
      <trkpt lat="43.47125" lon="5.94545">
        <ele>205.86</ele>
        <time>2019-03-19T13:12:15Z</time>
      </trkpt>
      <trkpt lat="43.47124" lon="5.94541">
        <ele>211.63</ele>
        <time>2019-03-19T13:12:17Z</time>
      </trkpt>
      <trkpt lat="43.47124" lon="5.94537">
        <ele>216.43</ele>
        <time>2019-03-19T13:12:19Z</time>
      </trkpt>
      <trkpt lat="43.47123" lon="5.94533">
        <ele>221.24</ele>
        <time>2019-03-19T13:12:21Z</time>
      </trkpt>
      <trkpt lat="43.47123" lon="5.94529">
        <ele>225.57</ele>
        <time>2019-03-19T13:12:23Z</time>
      </trkpt>
      <trkpt lat="43.47122" lon="5.94525">
        <ele>231.33</ele>
        <time>2019-03-19T13:12:25Z</time>
      </trkpt>
      <trkpt lat="43.47121" lon="5.94521">
        <ele>232.78</ele>
        <time>2019-03-19T13:12:27Z</time>
      </trkpt>
      <trkpt lat="43.47121" lon="5.94518">
        <ele>236.62</ele>
        <time>2019-03-19T13:12:29Z</time>
      </trkpt>
      <trkpt lat="43.4712" lon="5.94513">
        <ele>239.51</ele>
        <time>2019-03-19T13:12:31Z</time>
      </trkpt>
      <trkpt lat="43.47119" lon="5.94508">
        <ele>243.83</ele>
        <time>2019-03-19T13:12:34Z</time>
      </trkpt>
      <trkpt lat="43.47118" lon="5.94504">
        <ele>247.68</ele>
        <time>2019-03-19T13:12:37Z</time>
      </trkpt>
      <trkpt lat="43.47117" lon="5.94499">
        <ele>252</ele>
        <time>2019-03-19T13:12:40Z</time>
      </trkpt>
      <trkpt lat="43.47116" lon="5.94493">
        <ele>254.89</ele>
        <time>2019-03-19T13:12:43Z</time>
      </trkpt>
      <trkpt lat="43.47114" lon="5.94488">
        <ele>258.73</ele>
        <time>2019-03-19T13:12:47Z</time>
      </trkpt>
      <trkpt lat="43.47113" lon="5.94482">
        <ele>262.1</ele>
        <time>2019-03-19T13:12:51Z</time>
      </trkpt>
      <trkpt lat="43.47112" lon="5.94476">
        <ele>265.46</ele>
        <time>2019-03-19T13:12:55Z</time>
      </trkpt>
      <trkpt lat="43.4711" lon="5.94466">
        <ele>268.35</ele>
        <time>2019-03-19T13:13:01Z</time>
      </trkpt>
      <trkpt lat="43.47109" lon="5.94455">
        <ele>271.71</ele>
        <time>2019-03-19T13:13:08Z</time>
      </trkpt>
      <trkpt lat="43.47108" lon="5.94446">
        <ele>275.07</ele>
        <time>2019-03-19T13:13:15Z</time>
      </trkpt>
      <trkpt lat="43.47112" lon="5.94433">
        <ele>277.96</ele>
        <time>2019-03-19T13:13:27Z</time>
      </trkpt>
      <trkpt lat="43.47123" lon="5.94397">
        <ele>278.44</ele>
        <time>2019-03-19T13:13:44Z</time>
      </trkpt>
      <trkpt lat="43.47134" lon="5.94398">
        <ele>277.96</ele>
        <time>2019-03-19T13:13:57Z</time>
      </trkpt>
      <trkpt lat="43.47149" lon="5.94388">
        <ele>277.96</ele>
        <time>2019-03-19T13:14:11Z</time>
      </trkpt>
      <trkpt lat="43.47167" lon="5.94373">
        <ele>278.92</ele>
        <time>2019-03-19T13:14:28Z</time>
      </trkpt>
      <trkpt lat="43.47176" lon="5.9437">
        <ele>278.92</ele>
        <time>2019-03-19T13:14:41Z</time>
      </trkpt>
      <trkpt lat="43.47185" lon="5.94364">
        <ele>278.92</ele>
        <time>2019-03-19T13:14:52Z</time>
      </trkpt>
      <trkpt lat="43.47196" lon="5.94351">
        <ele>279.4</ele>
        <time>2019-03-19T13:15:07Z</time>
      </trkpt>
      <trkpt lat="43.4721" lon="5.94332">
        <ele>279.88</ele>
        <time>2019-03-19T13:15:24Z</time>
      </trkpt>
      <trkpt lat="43.47218" lon="5.94315">
        <ele>280.84</ele>
        <time>2019-03-19T13:15:40Z</time>
      </trkpt>
      <trkpt lat="43.47227" lon="5.94296">
        <ele>281.32</ele>
        <time>2019-03-19T13:15:55Z</time>
      </trkpt>
      <trkpt lat="43.47233" lon="5.94278">
        <ele>280.84</ele>
        <time>2019-03-19T13:16:10Z</time>
      </trkpt>
      <trkpt lat="43.47234" lon="5.94268">
        <ele>279.88</ele>
        <time>2019-03-19T13:16:18Z</time>
      </trkpt>
      <trkpt lat="43.47235" lon="5.9424">
        <ele>278.92</ele>
        <time>2019-03-19T13:16:36Z</time>
      </trkpt>
      <trkpt lat="43.47238" lon="5.94236">
        <ele>278.92</ele>
        <time>2019-03-19T13:16:51Z</time>
      </trkpt>
      <trkpt lat="43.4724" lon="5.94233">
        <ele>278.92</ele>
        <time>2019-03-19T13:17:12Z</time>
      </trkpt>
      <trkpt lat="43.4724" lon="5.94231">
        <ele>278.92</ele>
        <time>2019-03-19T13:17:16Z</time>
      </trkpt>
      <trkpt lat="43.47241" lon="5.94231">
        <ele>278.92</ele>
        <time>2019-03-19T13:17:26Z</time>
      </trkpt>
      <trkpt lat="43.47239" lon="5.94228">
        <ele>278.92</ele>
        <time>2019-03-19T13:17:42Z</time>
      </trkpt>
      <trkpt lat="43.47239" lon="5.94226">
        <ele>278.44</ele>
        <time>2019-03-19T13:18:11Z</time>
      </trkpt>
      <trkpt lat="43.47238" lon="5.94226">
        <ele>278.44</ele>
        <time>2019-03-19T13:18:55Z</time>
      </trkpt>
      <trkpt lat="43.47237" lon="5.94229">
        <ele>278.44</ele>
        <time>2019-03-19T13:19:21Z</time>
      </trkpt>
      <trkpt lat="43.47237" lon="5.94231">
        <ele>278.44</ele>
        <time>2019-03-19T13:19:39Z</time>
      </trkpt>
      <trkpt lat="43.47239" lon="5.94233">
        <ele>278.44</ele>
        <time>2019-03-19T13:20:14Z</time>
      </trkpt>
      <trkpt lat="43.4724" lon="5.94229">
        <ele>278.44</ele>
        <time>2019-03-19T13:20:37Z</time>
      </trkpt>
      <trkpt lat="43.47237" lon="5.94229">
        <ele>278.44</ele>
        <time>2019-03-19T13:21:00Z</time>
      </trkpt>
      <trkpt lat="43.47233" lon="5.94226">
        <ele>277.96</ele>
        <time>2019-03-19T13:21:12Z</time>
      </trkpt>
      <trkpt lat="43.47233" lon="5.94222">
        <ele>277.96</ele>
        <time>2019-03-19T13:21:28Z</time>
      </trkpt>
      <trkpt lat="43.47233" lon="5.94223">
        <ele>277.96</ele>
        <time>2019-03-19T13:21:49Z</time>
      </trkpt>
      <trkpt lat="43.47233" lon="5.9422">
        <ele>277.96</ele>
        <time>2019-03-19T13:22:12Z</time>
      </trkpt>
      <trkpt lat="43.47233" lon="5.94212">
        <ele>279.4</ele>
        <time>2019-03-19T13:22:25Z</time>
      </trkpt>
      <trkpt lat="43.47233" lon="5.94211">
        <ele>279.4</ele>
        <time>2019-03-19T13:22:26Z</time>
      </trkpt>
      <trkpt lat="43.47235" lon="5.94204">
        <ele>280.36</ele>
        <time>2019-03-19T13:22:40Z</time>
      </trkpt>
      <trkpt lat="43.47236" lon="5.94194">
        <ele>282.77</ele>
        <time>2019-03-19T13:22:58Z</time>
      </trkpt>
      <trkpt lat="43.47239" lon="5.94183">
        <ele>284.21</ele>
        <time>2019-03-19T13:23:13Z</time>
      </trkpt>
      <trkpt lat="43.4724" lon="5.94173">
        <ele>286.61</ele>
        <time>2019-03-19T13:23:29Z</time>
      </trkpt>
      <trkpt lat="43.47239" lon="5.94162">
        <ele>288.05</ele>
        <time>2019-03-19T13:23:42Z</time>
      </trkpt>
      <trkpt lat="43.47239" lon="5.94155">
        <ele>288.53</ele>
        <time>2019-03-19T13:23:53Z</time>
      </trkpt>
      <trkpt lat="43.47237" lon="5.9414">
        <ele>290.94</ele>
        <time>2019-03-19T13:24:07Z</time>
      </trkpt>
      <trkpt lat="43.47234" lon="5.94126">
        <ele>292.38</ele>
        <time>2019-03-19T13:24:21Z</time>
      </trkpt>
      <trkpt lat="43.47231" lon="5.94119">
        <ele>294.78</ele>
        <time>2019-03-19T13:24:35Z</time>
      </trkpt>
      <trkpt lat="43.47228" lon="5.94126">
        <ele>295.74</ele>
        <time>2019-03-19T13:24:50Z</time>
      </trkpt>
      <trkpt lat="43.47219" lon="5.94136">
        <ele>297.67</ele>
        <time>2019-03-19T13:25:06Z</time>
      </trkpt>
      <trkpt lat="43.47211" lon="5.94141">
        <ele>298.63</ele>
        <time>2019-03-19T13:25:19Z</time>
      </trkpt>
      <trkpt lat="43.47208" lon="5.94143">
        <ele>299.11</ele>
        <time>2019-03-19T13:25:53Z</time>
      </trkpt>
      <trkpt lat="43.472" lon="5.9414">
        <ele>300.55</ele>
        <time>2019-03-19T13:26:04Z</time>
      </trkpt>
      <trkpt lat="43.47193" lon="5.94132">
        <ele>302.95</ele>
        <time>2019-03-19T13:26:18Z</time>
      </trkpt>
      <trkpt lat="43.47186" lon="5.94123">
        <ele>304.39</ele>
        <time>2019-03-19T13:26:32Z</time>
      </trkpt>
      <trkpt lat="43.47181" lon="5.94117">
        <ele>305.36</ele>
        <time>2019-03-19T13:26:50Z</time>
      </trkpt>
      <trkpt lat="43.47173" lon="5.94108">
        <ele>307.76</ele>
        <time>2019-03-19T13:27:05Z</time>
      </trkpt>
      <trkpt lat="43.47165" lon="5.94099">
        <ele>308.72</ele>
        <time>2019-03-19T13:27:17Z</time>
      </trkpt>
      <trkpt lat="43.47156" lon="5.94091">
        <ele>309.68</ele>
        <time>2019-03-19T13:27:30Z</time>
      </trkpt>
      <trkpt lat="43.47144" lon="5.94078">
        <ele>311.6</ele>
        <time>2019-03-19T13:27:46Z</time>
      </trkpt>
      <trkpt lat="43.47133" lon="5.94068">
        <ele>313.53</ele>
        <time>2019-03-19T13:28:02Z</time>
      </trkpt>
      <trkpt lat="43.47123" lon="5.94058">
        <ele>315.93</ele>
        <time>2019-03-19T13:28:18Z</time>
      </trkpt>
      <trkpt lat="43.47121" lon="5.94057">
        <ele>316.41</ele>
        <time>2019-03-19T13:28:36Z</time>
      </trkpt>
      <trkpt lat="43.4712" lon="5.94057">
        <ele>316.41</ele>
        <time>2019-03-19T13:29:11Z</time>
      </trkpt>
      <trkpt lat="43.47117" lon="5.94051">
        <ele>317.37</ele>
        <time>2019-03-19T13:29:31Z</time>
      </trkpt>
      <trkpt lat="43.47109" lon="5.94044">
        <ele>318.33</ele>
        <time>2019-03-19T13:29:44Z</time>
      </trkpt>
      <trkpt lat="43.47105" lon="5.9404">
        <ele>318.81</ele>
        <time>2019-03-19T13:29:59Z</time>
      </trkpt>
      <trkpt lat="43.47099" lon="5.94035">
        <ele>319.78</ele>
        <time>2019-03-19T13:30:12Z</time>
      </trkpt>
      <trkpt lat="43.47097" lon="5.94034">
        <ele>320.26</ele>
        <time>2019-03-19T13:30:16Z</time>
      </trkpt>
      <trkpt lat="43.47093" lon="5.9403">
        <ele>321.22</ele>
        <time>2019-03-19T13:30:21Z</time>
      </trkpt>
      <trkpt lat="43.47087" lon="5.94026">
        <ele>322.18</ele>
        <time>2019-03-19T13:30:34Z</time>
      </trkpt>
      <trkpt lat="43.47078" lon="5.94016">
        <ele>323.62</ele>
        <time>2019-03-19T13:30:50Z</time>
      </trkpt>
      <trkpt lat="43.47071" lon="5.9401">
        <ele>324.58</ele>
        <time>2019-03-19T13:31:04Z</time>
      </trkpt>
      <trkpt lat="43.47062" lon="5.94003">
        <ele>326.02</ele>
        <time>2019-03-19T13:31:18Z</time>
      </trkpt>
      <trkpt lat="43.47049" lon="5.9399">
        <ele>326.99</ele>
        <time>2019-03-19T13:31:34Z</time>
      </trkpt>
      <trkpt lat="43.4704" lon="5.93982">
        <ele>328.91</ele>
        <time>2019-03-19T13:31:48Z</time>
      </trkpt>
      <trkpt lat="43.47034" lon="5.93974">
        <ele>330.35</ele>
        <time>2019-03-19T13:32:00Z</time>
      </trkpt>
      <trkpt lat="43.47029" lon="5.93966">
        <ele>332.27</ele>
        <time>2019-03-19T13:32:13Z</time>
      </trkpt>
      <trkpt lat="43.47023" lon="5.93955">
        <ele>333.71</ele>
        <time>2019-03-19T13:32:29Z</time>
      </trkpt>
      <trkpt lat="43.4702" lon="5.93945">
        <ele>335.64</ele>
        <time>2019-03-19T13:32:44Z</time>
      </trkpt>
      <trkpt lat="43.47016" lon="5.93934">
        <ele>337.56</ele>
        <time>2019-03-19T13:32:59Z</time>
      </trkpt>
      <trkpt lat="43.47011" lon="5.93925">
        <ele>339.48</ele>
        <time>2019-03-19T13:33:14Z</time>
      </trkpt>
      <trkpt lat="43.47006" lon="5.9392">
        <ele>339.48</ele>
        <time>2019-03-19T13:33:35Z</time>
      </trkpt>
      <trkpt lat="43.47007" lon="5.93914">
        <ele>339</ele>
        <time>2019-03-19T13:34:11Z</time>
      </trkpt>
      <trkpt lat="43.47006" lon="5.93917">
        <ele>339.48</ele>
        <time>2019-03-19T13:34:48Z</time>
      </trkpt>
      <trkpt lat="43.47006" lon="5.93917">
        <ele>339.48</ele>
        <time>2019-03-19T13:35:19Z</time>
      </trkpt>
      <trkpt lat="43.47006" lon="5.93916">
        <ele>339.48</ele>
        <time>2019-03-19T13:35:52Z</time>
      </trkpt>
      <trkpt lat="43.47008" lon="5.93908">
        <ele>341.41</ele>
        <time>2019-03-19T13:36:08Z</time>
      </trkpt>
      <trkpt lat="43.47007" lon="5.93901">
        <ele>343.33</ele>
        <time>2019-03-19T13:36:22Z</time>
      </trkpt>
      <trkpt lat="43.47002" lon="5.93892">
        <ele>344.77</ele>
        <time>2019-03-19T13:36:37Z</time>
      </trkpt>
      <trkpt lat="43.46997" lon="5.93887">
        <ele>346.21</ele>
        <time>2019-03-19T13:36:52Z</time>
      </trkpt>
      <trkpt lat="43.46992" lon="5.93877">
        <ele>348.13</ele>
        <time>2019-03-19T13:37:07Z</time>
      </trkpt>
      <trkpt lat="43.46987" lon="5.93868">
        <ele>349.1</ele>
        <time>2019-03-19T13:37:22Z</time>
      </trkpt>
      <trkpt lat="43.46983" lon="5.93858">
        <ele>350.54</ele>
        <time>2019-03-19T13:37:38Z</time>
      </trkpt>
      <trkpt lat="43.4698" lon="5.93853">
        <ele>351.02</ele>
        <time>2019-03-19T13:37:53Z</time>
      </trkpt>
      <trkpt lat="43.46978" lon="5.93847">
        <ele>351.5</ele>
        <time>2019-03-19T13:38:14Z</time>
      </trkpt>
      <trkpt lat="43.46979" lon="5.93845">
        <ele>351.5</ele>
        <time>2019-03-19T13:38:35Z</time>
      </trkpt>
      <trkpt lat="43.46976" lon="5.93836">
        <ele>351.98</ele>
        <time>2019-03-19T13:39:02Z</time>
      </trkpt>
      <trkpt lat="43.46975" lon="5.93829">
        <ele>351.98</ele>
        <time>2019-03-19T13:39:08Z</time>
      </trkpt>
      <trkpt lat="43.46975" lon="5.93823">
        <ele>351.98</ele>
        <time>2019-03-19T13:39:13Z</time>
      </trkpt>
      <trkpt lat="43.46975" lon="5.93808">
        <ele>352.46</ele>
        <time>2019-03-19T13:39:26Z</time>
      </trkpt>
      <trkpt lat="43.46976" lon="5.93796">
        <ele>351.98</ele>
        <time>2019-03-19T13:39:38Z</time>
      </trkpt>
      <trkpt lat="43.46976" lon="5.93793">
        <ele>351.02</ele>
        <time>2019-03-19T13:39:42Z</time>
      </trkpt>
      <trkpt lat="43.46977" lon="5.9378">
        <ele>349.58</ele>
        <time>2019-03-19T13:39:55Z</time>
      </trkpt>
      <trkpt lat="43.4698" lon="5.93764">
        <ele>349.58</ele>
        <time>2019-03-19T13:40:11Z</time>
      </trkpt>
      <trkpt lat="43.46982" lon="5.93747">
        <ele>348.62</ele>
        <time>2019-03-19T13:40:25Z</time>
      </trkpt>
      <trkpt lat="43.46985" lon="5.93733">
        <ele>348.62</ele>
        <time>2019-03-19T13:40:38Z</time>
      </trkpt>
      <trkpt lat="43.46985" lon="5.9372">
        <ele>350.06</ele>
        <time>2019-03-19T13:40:50Z</time>
      </trkpt>
      <trkpt lat="43.46985" lon="5.93713">
        <ele>351.02</ele>
        <time>2019-03-19T13:41:07Z</time>
      </trkpt>
      <trkpt lat="43.46983" lon="5.93706">
        <ele>351.5</ele>
        <time>2019-03-19T13:41:30Z</time>
      </trkpt>
      <trkpt lat="43.46988" lon="5.93693">
        <ele>353.42</ele>
        <time>2019-03-19T13:41:47Z</time>
      </trkpt>
      <trkpt lat="43.46992" lon="5.93682">
        <ele>354.38</ele>
        <time>2019-03-19T13:42:00Z</time>
      </trkpt>
      <trkpt lat="43.46995" lon="5.93672">
        <ele>354.86</ele>
        <time>2019-03-19T13:42:11Z</time>
      </trkpt>
      <trkpt lat="43.47" lon="5.93659">
        <ele>356.31</ele>
        <time>2019-03-19T13:42:24Z</time>
      </trkpt>
      <trkpt lat="43.47003" lon="5.93643">
        <ele>357.27</ele>
        <time>2019-03-19T13:42:39Z</time>
      </trkpt>
      <trkpt lat="43.47006" lon="5.93623">
        <ele>358.23</ele>
        <time>2019-03-19T13:42:53Z</time>
      </trkpt>
      <trkpt lat="43.47007" lon="5.93596">
        <ele>358.71</ele>
        <time>2019-03-19T13:43:10Z</time>
      </trkpt>
      <trkpt lat="43.47009" lon="5.93585">
        <ele>359.19</ele>
        <time>2019-03-19T13:43:16Z</time>
      </trkpt>
      <trkpt lat="43.47002" lon="5.93564">
        <ele>357.75</ele>
        <time>2019-03-19T13:43:35Z</time>
      </trkpt>
      <trkpt lat="43.46992" lon="5.93545">
        <ele>356.31</ele>
        <time>2019-03-19T13:43:52Z</time>
      </trkpt>
      <trkpt lat="43.46987" lon="5.93527">
        <ele>355.34</ele>
        <time>2019-03-19T13:44:07Z</time>
      </trkpt>
      <trkpt lat="43.46985" lon="5.93518">
        <ele>355.34</ele>
        <time>2019-03-19T13:44:14Z</time>
      </trkpt>
      <trkpt lat="43.46983" lon="5.93494">
        <ele>354.86</ele>
        <time>2019-03-19T13:44:29Z</time>
      </trkpt>
      <trkpt lat="43.46983" lon="5.93488">
        <ele>354.38</ele>
        <time>2019-03-19T13:44:42Z</time>
      </trkpt>
      <trkpt lat="43.4698" lon="5.93471">
        <ele>354.38</ele>
        <time>2019-03-19T13:44:54Z</time>
      </trkpt>
      <trkpt lat="43.4698" lon="5.93467">
        <ele>354.38</ele>
        <time>2019-03-19T13:44:57Z</time>
      </trkpt>
      <trkpt lat="43.46977" lon="5.93448">
        <ele>354.38</ele>
        <time>2019-03-19T13:45:12Z</time>
      </trkpt>
      <trkpt lat="43.46974" lon="5.9343">
        <ele>353.9</ele>
        <time>2019-03-19T13:45:29Z</time>
      </trkpt>
      <trkpt lat="43.46969" lon="5.93411">
        <ele>352.46</ele>
        <time>2019-03-19T13:45:44Z</time>
      </trkpt>
      <trkpt lat="43.46959" lon="5.93396">
        <ele>351.5</ele>
        <time>2019-03-19T13:46:01Z</time>
      </trkpt>
      <trkpt lat="43.46945" lon="5.93389">
        <ele>351.5</ele>
        <time>2019-03-19T13:46:16Z</time>
      </trkpt>
      <trkpt lat="43.46928" lon="5.93383">
        <ele>351.5</ele>
        <time>2019-03-19T13:46:34Z</time>
      </trkpt>
      <trkpt lat="43.46914" lon="5.93376">
        <ele>351.5</ele>
        <time>2019-03-19T13:46:50Z</time>
      </trkpt>
      <trkpt lat="43.46908" lon="5.93374">
        <ele>352.46</ele>
        <time>2019-03-19T13:46:57Z</time>
      </trkpt>
      <trkpt lat="43.46897" lon="5.93367">
        <ele>353.42</ele>
        <time>2019-03-19T13:47:11Z</time>
      </trkpt>
      <trkpt lat="43.46888" lon="5.93352">
        <ele>353.9</ele>
        <time>2019-03-19T13:47:26Z</time>
      </trkpt>
      <trkpt lat="43.46881" lon="5.93338">
        <ele>354.86</ele>
        <time>2019-03-19T13:47:40Z</time>
      </trkpt>
      <trkpt lat="43.46875" lon="5.93321">
        <ele>354.86</ele>
        <time>2019-03-19T13:47:57Z</time>
      </trkpt>
      <trkpt lat="43.46868" lon="5.93302">
        <ele>355.34</ele>
        <time>2019-03-19T13:48:12Z</time>
      </trkpt>
      <trkpt lat="43.46864" lon="5.93293">
        <ele>353.9</ele>
        <time>2019-03-19T13:48:19Z</time>
      </trkpt>
      <trkpt lat="43.46858" lon="5.93269">
        <ele>353.42</ele>
        <time>2019-03-19T13:48:37Z</time>
      </trkpt>
      <trkpt lat="43.46856" lon="5.9325">
        <ele>353.42</ele>
        <time>2019-03-19T13:48:49Z</time>
      </trkpt>
      <trkpt lat="43.4686" lon="5.93227">
        <ele>352.94</ele>
        <time>2019-03-19T13:49:06Z</time>
      </trkpt>
      <trkpt lat="43.46863" lon="5.93203">
        <ele>351.98</ele>
        <time>2019-03-19T13:49:23Z</time>
      </trkpt>
      <trkpt lat="43.46864" lon="5.93181">
        <ele>351.02</ele>
        <time>2019-03-19T13:49:38Z</time>
      </trkpt>
      <trkpt lat="43.46863" lon="5.93161">
        <ele>350.06</ele>
        <time>2019-03-19T13:49:54Z</time>
      </trkpt>
      <trkpt lat="43.4686" lon="5.93142">
        <ele>349.58</ele>
        <time>2019-03-19T13:50:10Z</time>
      </trkpt>
      <trkpt lat="43.46858" lon="5.93124">
        <ele>348.62</ele>
        <time>2019-03-19T13:50:25Z</time>
      </trkpt>
      <trkpt lat="43.46855" lon="5.93101">
        <ele>348.13</ele>
        <time>2019-03-19T13:50:42Z</time>
      </trkpt>
      <trkpt lat="43.46851" lon="5.9308">
        <ele>346.69</ele>
        <time>2019-03-19T13:50:58Z</time>
      </trkpt>
      <trkpt lat="43.4685" lon="5.93079">
        <ele>346.69</ele>
        <time>2019-03-19T13:50:59Z</time>
      </trkpt>
      <trkpt lat="43.46847" lon="5.93057">
        <ele>346.21</ele>
        <time>2019-03-19T13:51:17Z</time>
      </trkpt>
      <trkpt lat="43.46841" lon="5.9304">
        <ele>344.77</ele>
        <time>2019-03-19T13:51:34Z</time>
      </trkpt>
      <trkpt lat="43.46835" lon="5.93024">
        <ele>344.29</ele>
        <time>2019-03-19T13:51:48Z</time>
      </trkpt>
      <trkpt lat="43.46831" lon="5.93007">
        <ele>342.85</ele>
        <time>2019-03-19T13:52:02Z</time>
      </trkpt>
      <trkpt lat="43.46829" lon="5.92989">
        <ele>341.89</ele>
        <time>2019-03-19T13:52:17Z</time>
      </trkpt>
      <trkpt lat="43.46826" lon="5.9297">
        <ele>341.41</ele>
        <time>2019-03-19T13:52:31Z</time>
      </trkpt>
      <trkpt lat="43.46825" lon="5.9295">
        <ele>340.44</ele>
        <time>2019-03-19T13:52:47Z</time>
      </trkpt>
      <trkpt lat="43.46823" lon="5.9293">
        <ele>339.48</ele>
        <time>2019-03-19T13:53:02Z</time>
      </trkpt>
      <trkpt lat="43.46821" lon="5.92908">
        <ele>339.96</ele>
        <time>2019-03-19T13:53:19Z</time>
      </trkpt>
      <trkpt lat="43.46821" lon="5.92895">
        <ele>341.41</ele>
        <time>2019-03-19T13:53:31Z</time>
      </trkpt>
      <trkpt lat="43.46819" lon="5.92885">
        <ele>342.37</ele>
        <time>2019-03-19T13:53:47Z</time>
      </trkpt>
      <trkpt lat="43.4682" lon="5.92882">
        <ele>340.92</ele>
        <time>2019-03-19T13:54:07Z</time>
      </trkpt>
      <trkpt lat="43.4682" lon="5.92881">
        <ele>340.92</ele>
        <time>2019-03-19T13:54:08Z</time>
      </trkpt>
      <trkpt lat="43.46819" lon="5.92876">
        <ele>340.92</ele>
        <time>2019-03-19T13:54:48Z</time>
      </trkpt>
      <trkpt lat="43.46819" lon="5.92879">
        <ele>341.89</ele>
        <time>2019-03-19T13:55:09Z</time>
      </trkpt>
      <trkpt lat="43.46818" lon="5.92862">
        <ele>341.89</ele>
        <time>2019-03-19T13:55:25Z</time>
      </trkpt>
      <trkpt lat="43.46818" lon="5.92849">
        <ele>342.37</ele>
        <time>2019-03-19T13:55:37Z</time>
      </trkpt>
      <trkpt lat="43.46818" lon="5.92827">
        <ele>342.37</ele>
        <time>2019-03-19T13:55:55Z</time>
      </trkpt>
      <trkpt lat="43.46817" lon="5.92809">
        <ele>342.37</ele>
        <time>2019-03-19T13:56:11Z</time>
      </trkpt>
      <trkpt lat="43.46817" lon="5.92791">
        <ele>342.85</ele>
        <time>2019-03-19T13:56:25Z</time>
      </trkpt>
      <trkpt lat="43.46817" lon="5.92774">
        <ele>342.85</ele>
        <time>2019-03-19T13:56:39Z</time>
      </trkpt>
      <trkpt lat="43.46817" lon="5.92755">
        <ele>342.85</ele>
        <time>2019-03-19T13:56:54Z</time>
      </trkpt>
      <trkpt lat="43.46818" lon="5.92734">
        <ele>343.81</ele>
        <time>2019-03-19T13:57:10Z</time>
      </trkpt>
      <trkpt lat="43.46817" lon="5.92719">
        <ele>344.29</ele>
        <time>2019-03-19T13:57:22Z</time>
      </trkpt>
      <trkpt lat="43.46815" lon="5.92704">
        <ele>344.77</ele>
        <time>2019-03-19T13:57:36Z</time>
      </trkpt>
      <trkpt lat="43.46803" lon="5.92702">
        <ele>345.73</ele>
        <time>2019-03-19T13:57:51Z</time>
      </trkpt>
      <trkpt lat="43.46791" lon="5.92701">
        <ele>346.69</ele>
        <time>2019-03-19T13:58:06Z</time>
      </trkpt>
      <trkpt lat="43.46783" lon="5.92702">
        <ele>346.69</ele>
        <time>2019-03-19T13:58:15Z</time>
      </trkpt>
      <trkpt lat="43.46767" lon="5.92703">
        <ele>346.69</ele>
        <time>2019-03-19T13:58:30Z</time>
      </trkpt>
      <trkpt lat="43.46765" lon="5.92704">
        <ele>346.69</ele>
        <time>2019-03-19T13:58:58Z</time>
      </trkpt>
      <trkpt lat="43.46766" lon="5.92702">
        <ele>346.69</ele>
        <time>2019-03-19T13:59:15Z</time>
      </trkpt>
      <trkpt lat="43.46777" lon="5.92698">
        <ele>346.69</ele>
        <time>2019-03-19T13:59:29Z</time>
      </trkpt>
      <trkpt lat="43.46793" lon="5.92696">
        <ele>346.69</ele>
        <time>2019-03-19T13:59:45Z</time>
      </trkpt>
      <trkpt lat="43.46803" lon="5.92697">
        <ele>345.73</ele>
        <time>2019-03-19T13:59:55Z</time>
      </trkpt>
      <trkpt lat="43.46815" lon="5.92702">
        <ele>344.29</ele>
        <time>2019-03-19T14:00:10Z</time>
      </trkpt>
      <trkpt lat="43.46817" lon="5.92709">
        <ele>344.29</ele>
        <time>2019-03-19T14:00:26Z</time>
      </trkpt>
      <trkpt lat="43.46817" lon="5.92717">
        <ele>344.29</ele>
        <time>2019-03-19T14:00:45Z</time>
      </trkpt>
      <trkpt lat="43.46818" lon="5.92725">
        <ele>344.29</ele>
        <time>2019-03-19T14:00:53Z</time>
      </trkpt>
      <trkpt lat="43.46818" lon="5.92745">
        <ele>343.33</ele>
        <time>2019-03-19T14:01:08Z</time>
      </trkpt>
      <trkpt lat="43.46818" lon="5.92765">
        <ele>342.85</ele>
        <time>2019-03-19T14:01:23Z</time>
      </trkpt>
      <trkpt lat="43.46819" lon="5.92791">
        <ele>343.33</ele>
        <time>2019-03-19T14:01:40Z</time>
      </trkpt>
      <trkpt lat="43.46819" lon="5.92814">
        <ele>342.37</ele>
        <time>2019-03-19T14:01:55Z</time>
      </trkpt>
      <trkpt lat="43.46819" lon="5.92835">
        <ele>341.89</ele>
        <time>2019-03-19T14:02:10Z</time>
      </trkpt>
      <trkpt lat="43.4682" lon="5.9286">
        <ele>341.41</ele>
        <time>2019-03-19T14:02:28Z</time>
      </trkpt>
      <trkpt lat="43.4682" lon="5.92865">
        <ele>341.41</ele>
        <time>2019-03-19T14:02:32Z</time>
      </trkpt>
      <trkpt lat="43.4682" lon="5.92887">
        <ele>339.96</ele>
        <time>2019-03-19T14:02:48Z</time>
      </trkpt>
      <trkpt lat="43.46821" lon="5.92896">
        <ele>339.48</ele>
        <time>2019-03-19T14:02:55Z</time>
      </trkpt>
      <trkpt lat="43.46823" lon="5.92923">
        <ele>339.48</ele>
        <time>2019-03-19T14:03:14Z</time>
      </trkpt>
      <trkpt lat="43.46827" lon="5.92927">
        <ele>338.04</ele>
        <time>2019-03-19T14:03:28Z</time>
      </trkpt>
      <trkpt lat="43.46835" lon="5.92929">
        <ele>336.6</ele>
        <time>2019-03-19T14:03:45Z</time>
      </trkpt>
      <trkpt lat="43.46842" lon="5.92932">
        <ele>336.12</ele>
        <time>2019-03-19T14:04:00Z</time>
      </trkpt>
      <trkpt lat="43.46856" lon="5.92933">
        <ele>334.2</ele>
        <time>2019-03-19T14:04:18Z</time>
      </trkpt>
      <trkpt lat="43.46866" lon="5.92936">
        <ele>332.75</ele>
        <time>2019-03-19T14:04:33Z</time>
      </trkpt>
      <trkpt lat="43.46872" lon="5.92935">
        <ele>331.31</ele>
        <time>2019-03-19T14:04:47Z</time>
      </trkpt>
      <trkpt lat="43.46881" lon="5.92938">
        <ele>330.35</ele>
        <time>2019-03-19T14:05:01Z</time>
      </trkpt>
      <trkpt lat="43.46892" lon="5.9294">
        <ele>328.43</ele>
        <time>2019-03-19T14:05:15Z</time>
      </trkpt>
      <trkpt lat="43.46903" lon="5.92932">
        <ele>327.95</ele>
        <time>2019-03-19T14:05:28Z</time>
      </trkpt>
      <trkpt lat="43.46905" lon="5.9293">
        <ele>327.95</ele>
        <time>2019-03-19T14:05:30Z</time>
      </trkpt>
      <trkpt lat="43.46915" lon="5.92919">
        <ele>327.95</ele>
        <time>2019-03-19T14:05:46Z</time>
      </trkpt>
      <trkpt lat="43.46922" lon="5.92909">
        <ele>327.47</ele>
        <time>2019-03-19T14:05:59Z</time>
      </trkpt>
      <trkpt lat="43.46927" lon="5.92899">
        <ele>326.02</ele>
        <time>2019-03-19T14:06:11Z</time>
      </trkpt>
      <trkpt lat="43.46933" lon="5.92885">
        <ele>326.02</ele>
        <time>2019-03-19T14:06:25Z</time>
      </trkpt>
      <trkpt lat="43.46938" lon="5.92871">
        <ele>326.02</ele>
        <time>2019-03-19T14:06:39Z</time>
      </trkpt>
      <trkpt lat="43.46947" lon="5.92858">
        <ele>325.06</ele>
        <time>2019-03-19T14:06:53Z</time>
      </trkpt>
      <trkpt lat="43.46954" lon="5.9284">
        <ele>325.06</ele>
        <time>2019-03-19T14:07:08Z</time>
      </trkpt>
      <trkpt lat="43.46961" lon="5.92828">
        <ele>325.06</ele>
        <time>2019-03-19T14:07:21Z</time>
      </trkpt>
      <trkpt lat="43.46971" lon="5.92819">
        <ele>324.58</ele>
        <time>2019-03-19T14:07:35Z</time>
      </trkpt>
      <trkpt lat="43.46977" lon="5.92818">
        <ele>323.62</ele>
        <time>2019-03-19T14:07:41Z</time>
      </trkpt>
      <trkpt lat="43.46991" lon="5.92817">
        <ele>323.14</ele>
        <time>2019-03-19T14:07:56Z</time>
      </trkpt>
      <trkpt lat="43.46994" lon="5.92817">
        <ele>322.66</ele>
        <time>2019-03-19T14:07:59Z</time>
      </trkpt>
      <trkpt lat="43.46996" lon="5.92819">
        <ele>322.66</ele>
        <time>2019-03-19T14:08:01Z</time>
      </trkpt>
      <trkpt lat="43.47008" lon="5.92828">
        <ele>322.18</ele>
        <time>2019-03-19T14:08:16Z</time>
      </trkpt>
      <trkpt lat="43.47012" lon="5.92833">
        <ele>321.7</ele>
        <time>2019-03-19T14:08:22Z</time>
      </trkpt>
      <trkpt lat="43.47014" lon="5.92835">
        <ele>321.22</ele>
        <time>2019-03-19T14:08:38Z</time>
      </trkpt>
      <trkpt lat="43.47016" lon="5.92841">
        <ele>321.22</ele>
        <time>2019-03-19T14:09:01Z</time>
      </trkpt>
      <trkpt lat="43.47024" lon="5.92857">
        <ele>321.22</ele>
        <time>2019-03-19T14:09:17Z</time>
      </trkpt>
      <trkpt lat="43.47032" lon="5.92872">
        <ele>321.22</ele>
        <time>2019-03-19T14:09:31Z</time>
      </trkpt>
      <trkpt lat="43.47038" lon="5.92884">
        <ele>320.74</ele>
        <time>2019-03-19T14:09:43Z</time>
      </trkpt>
      <trkpt lat="43.47044" lon="5.92896">
        <ele>320.74</ele>
        <time>2019-03-19T14:09:55Z</time>
      </trkpt>
      <trkpt lat="43.4705" lon="5.92908">
        <ele>320.26</ele>
        <time>2019-03-19T14:10:09Z</time>
      </trkpt>
      <trkpt lat="43.4705" lon="5.9291">
        <ele>319.78</ele>
        <time>2019-03-19T14:10:44Z</time>
      </trkpt>
      <trkpt lat="43.47051" lon="5.92912">
        <ele>319.78</ele>
        <time>2019-03-19T14:11:00Z</time>
      </trkpt>
      <trkpt lat="43.47051" lon="5.92912">
        <ele>319.78</ele>
        <time>2019-03-19T14:11:26Z</time>
      </trkpt>
      <trkpt lat="43.4705" lon="5.92912">
        <ele>319.78</ele>
        <time>2019-03-19T14:12:02Z</time>
      </trkpt>
      <trkpt lat="43.47054" lon="5.92916">
        <ele>318.81</ele>
        <time>2019-03-19T14:12:23Z</time>
      </trkpt>
      <trkpt lat="43.4706" lon="5.92927">
        <ele>318.33</ele>
        <time>2019-03-19T14:12:36Z</time>
      </trkpt>
      <trkpt lat="43.47066" lon="5.92938">
        <ele>318.33</ele>
        <time>2019-03-19T14:12:49Z</time>
      </trkpt>
      <trkpt lat="43.47073" lon="5.92951">
        <ele>318.33</ele>
        <time>2019-03-19T14:13:03Z</time>
      </trkpt>
      <trkpt lat="43.4708" lon="5.92964">
        <ele>319.3</ele>
        <time>2019-03-19T14:13:16Z</time>
      </trkpt>
      <trkpt lat="43.47086" lon="5.92976">
        <ele>319.3</ele>
        <time>2019-03-19T14:13:29Z</time>
      </trkpt>
      <trkpt lat="43.47088" lon="5.92978">
        <ele>319.3</ele>
        <time>2019-03-19T14:13:33Z</time>
      </trkpt>
      <trkpt lat="43.47094" lon="5.92991">
        <ele>319.3</ele>
        <time>2019-03-19T14:13:47Z</time>
      </trkpt>
      <trkpt lat="43.47103" lon="5.92997">
        <ele>319.3</ele>
        <time>2019-03-19T14:14:00Z</time>
      </trkpt>
      <trkpt lat="43.47111" lon="5.93005">
        <ele>320.26</ele>
        <time>2019-03-19T14:14:15Z</time>
      </trkpt>
      <trkpt lat="43.47113" lon="5.93016">
        <ele>320.74</ele>
        <time>2019-03-19T14:14:27Z</time>
      </trkpt>
      <trkpt lat="43.47112" lon="5.93035">
        <ele>320.74</ele>
        <time>2019-03-19T14:14:42Z</time>
      </trkpt>
      <trkpt lat="43.47112" lon="5.93048">
        <ele>321.22</ele>
        <time>2019-03-19T14:14:55Z</time>
      </trkpt>
      <trkpt lat="43.47111" lon="5.93064">
        <ele>320.74</ele>
        <time>2019-03-19T14:15:10Z</time>
      </trkpt>
      <trkpt lat="43.47111" lon="5.93081">
        <ele>321.22</ele>
        <time>2019-03-19T14:15:24Z</time>
      </trkpt>
      <trkpt lat="43.47114" lon="5.93095">
        <ele>321.22</ele>
        <time>2019-03-19T14:15:36Z</time>
      </trkpt>
      <trkpt lat="43.47122" lon="5.93105">
        <ele>321.22</ele>
        <time>2019-03-19T14:15:51Z</time>
      </trkpt>
      <trkpt lat="43.47131" lon="5.9311">
        <ele>321.22</ele>
        <time>2019-03-19T14:16:04Z</time>
      </trkpt>
      <trkpt lat="43.47142" lon="5.93118">
        <ele>319.78</ele>
        <time>2019-03-19T14:16:18Z</time>
      </trkpt>
      <trkpt lat="43.4715" lon="5.93124">
        <ele>319.78</ele>
        <time>2019-03-19T14:16:27Z</time>
      </trkpt>
      <trkpt lat="43.4716" lon="5.93131">
        <ele>319.78</ele>
        <time>2019-03-19T14:16:40Z</time>
      </trkpt>
      <trkpt lat="43.47169" lon="5.93137">
        <ele>319.78</ele>
        <time>2019-03-19T14:16:52Z</time>
      </trkpt>
      <trkpt lat="43.47183" lon="5.93146">
        <ele>319.78</ele>
        <time>2019-03-19T14:17:09Z</time>
      </trkpt>
      <trkpt lat="43.47192" lon="5.93154">
        <ele>319.78</ele>
        <time>2019-03-19T14:17:22Z</time>
      </trkpt>
      <trkpt lat="43.47203" lon="5.93162">
        <ele>319.78</ele>
        <time>2019-03-19T14:17:35Z</time>
      </trkpt>
      <trkpt lat="43.47213" lon="5.93173">
        <ele>320.26</ele>
        <time>2019-03-19T14:17:48Z</time>
      </trkpt>
      <trkpt lat="43.47214" lon="5.93174">
        <ele>320.26</ele>
        <time>2019-03-19T14:17:49Z</time>
      </trkpt>
      <trkpt lat="43.47226" lon="5.93189">
        <ele>320.26</ele>
        <time>2019-03-19T14:18:04Z</time>
      </trkpt>
      <trkpt lat="43.47237" lon="5.93197">
        <ele>319.78</ele>
        <time>2019-03-19T14:18:19Z</time>
      </trkpt>
      <trkpt lat="43.47252" lon="5.93202">
        <ele>319.78</ele>
        <time>2019-03-19T14:18:36Z</time>
      </trkpt>
      <trkpt lat="43.47263" lon="5.93207">
        <ele>319.78</ele>
        <time>2019-03-19T14:18:50Z</time>
      </trkpt>
      <trkpt lat="43.47274" lon="5.93211">
        <ele>319.78</ele>
        <time>2019-03-19T14:19:04Z</time>
      </trkpt>
      <trkpt lat="43.47285" lon="5.93215">
        <ele>319.78</ele>
        <time>2019-03-19T14:19:17Z</time>
      </trkpt>
      <trkpt lat="43.47301" lon="5.93218">
        <ele>319.78</ele>
        <time>2019-03-19T14:19:34Z</time>
      </trkpt>
      <trkpt lat="43.4731" lon="5.9322">
        <ele>319.78</ele>
        <time>2019-03-19T14:19:47Z</time>
      </trkpt>
      <trkpt lat="43.47311" lon="5.93221">
        <ele>319.78</ele>
        <time>2019-03-19T14:20:13Z</time>
      </trkpt>
      <trkpt lat="43.47314" lon="5.9322">
        <ele>319.78</ele>
        <time>2019-03-19T14:20:29Z</time>
      </trkpt>
      <trkpt lat="43.47316" lon="5.9322">
        <ele>319.78</ele>
        <time>2019-03-19T14:20:31Z</time>
      </trkpt>
      <trkpt lat="43.47329" lon="5.93218">
        <ele>319.78</ele>
        <time>2019-03-19T14:20:46Z</time>
      </trkpt>
      <trkpt lat="43.47342" lon="5.93218">
        <ele>319.3</ele>
        <time>2019-03-19T14:21:01Z</time>
      </trkpt>
      <trkpt lat="43.47355" lon="5.9322">
        <ele>319.3</ele>
        <time>2019-03-19T14:21:16Z</time>
      </trkpt>
      <trkpt lat="43.47366" lon="5.9322">
        <ele>318.33</ele>
        <time>2019-03-19T14:21:30Z</time>
      </trkpt>
      <trkpt lat="43.47379" lon="5.93223">
        <ele>318.33</ele>
        <time>2019-03-19T14:21:45Z</time>
      </trkpt>
      <trkpt lat="43.47389" lon="5.93226">
        <ele>317.85</ele>
        <time>2019-03-19T14:21:59Z</time>
      </trkpt>
      <trkpt lat="43.474" lon="5.93224">
        <ele>317.37</ele>
        <time>2019-03-19T14:22:14Z</time>
      </trkpt>
      <trkpt lat="43.47411" lon="5.93215">
        <ele>316.89</ele>
        <time>2019-03-19T14:22:29Z</time>
      </trkpt>
      <trkpt lat="43.4742" lon="5.93203">
        <ele>316.89</ele>
        <time>2019-03-19T14:22:43Z</time>
      </trkpt>
      <trkpt lat="43.47428" lon="5.93188">
        <ele>316.89</ele>
        <time>2019-03-19T14:22:57Z</time>
      </trkpt>
      <trkpt lat="43.47436" lon="5.93169">
        <ele>316.89</ele>
        <time>2019-03-19T14:23:14Z</time>
      </trkpt>
      <trkpt lat="43.47444" lon="5.93153">
        <ele>318.81</ele>
        <time>2019-03-19T14:23:30Z</time>
      </trkpt>
      <trkpt lat="43.4745" lon="5.93146">
        <ele>320.26</ele>
        <time>2019-03-19T14:23:46Z</time>
      </trkpt>
      <trkpt lat="43.47453" lon="5.93146">
        <ele>320.26</ele>
        <time>2019-03-19T14:24:11Z</time>
      </trkpt>
      <trkpt lat="43.47455" lon="5.93147">
        <ele>320.26</ele>
        <time>2019-03-19T14:24:27Z</time>
      </trkpt>
      <trkpt lat="43.47454" lon="5.93146">
        <ele>320.26</ele>
        <time>2019-03-19T14:24:45Z</time>
      </trkpt>
      <trkpt lat="43.47455" lon="5.9315">
        <ele>320.26</ele>
        <time>2019-03-19T14:25:15Z</time>
      </trkpt>
      <trkpt lat="43.47454" lon="5.93149">
        <ele>319.78</ele>
        <time>2019-03-19T14:25:45Z</time>
      </trkpt>
      <trkpt lat="43.47453" lon="5.93147">
        <ele>319.78</ele>
        <time>2019-03-19T14:26:17Z</time>
      </trkpt>
      <trkpt lat="43.47454" lon="5.93146">
        <ele>319.78</ele>
        <time>2019-03-19T14:26:40Z</time>
      </trkpt>
      <trkpt lat="43.47458" lon="5.93151">
        <ele>319.78</ele>
        <time>2019-03-19T14:26:54Z</time>
      </trkpt>
      <trkpt lat="43.47461" lon="5.93156">
        <ele>319.78</ele>
        <time>2019-03-19T14:27:07Z</time>
      </trkpt>
      <trkpt lat="43.47468" lon="5.93169">
        <ele>319.78</ele>
        <time>2019-03-19T14:27:22Z</time>
      </trkpt>
      <trkpt lat="43.47471" lon="5.93177">
        <ele>319.78</ele>
        <time>2019-03-19T14:27:30Z</time>
      </trkpt>
      <trkpt lat="43.47478" lon="5.9319">
        <ele>319.78</ele>
        <time>2019-03-19T14:27:45Z</time>
      </trkpt>
      <trkpt lat="43.47482" lon="5.93202">
        <ele>318.81</ele>
        <time>2019-03-19T14:27:58Z</time>
      </trkpt>
      <trkpt lat="43.47494" lon="5.9322">
        <ele>317.85</ele>
        <time>2019-03-19T14:28:15Z</time>
      </trkpt>
      <trkpt lat="43.47503" lon="5.93235">
        <ele>316.89</ele>
        <time>2019-03-19T14:28:28Z</time>
      </trkpt>
      <trkpt lat="43.47514" lon="5.93248">
        <ele>315.93</ele>
        <time>2019-03-19T14:28:44Z</time>
      </trkpt>
      <trkpt lat="43.47519" lon="5.93253">
        <ele>316.41</ele>
        <time>2019-03-19T14:29:08Z</time>
      </trkpt>
      <trkpt lat="43.47521" lon="5.93255">
        <ele>316.41</ele>
        <time>2019-03-19T14:29:26Z</time>
      </trkpt>
      <trkpt lat="43.47531" lon="5.93261">
        <ele>315.93</ele>
        <time>2019-03-19T14:29:40Z</time>
      </trkpt>
      <trkpt lat="43.47533" lon="5.93262">
        <ele>315.93</ele>
        <time>2019-03-19T14:29:43Z</time>
      </trkpt>
      <trkpt lat="43.47538" lon="5.93266">
        <ele>315.93</ele>
        <time>2019-03-19T14:29:49Z</time>
      </trkpt>
      <trkpt lat="43.47549" lon="5.93275">
        <ele>315.45</ele>
        <time>2019-03-19T14:30:02Z</time>
      </trkpt>
      <trkpt lat="43.47563" lon="5.93287">
        <ele>315.45</ele>
        <time>2019-03-19T14:30:19Z</time>
      </trkpt>
      <trkpt lat="43.47576" lon="5.93297">
        <ele>316.89</ele>
        <time>2019-03-19T14:30:35Z</time>
      </trkpt>
      <trkpt lat="43.47586" lon="5.93311">
        <ele>316.89</ele>
        <time>2019-03-19T14:30:50Z</time>
      </trkpt>
      <trkpt lat="43.47597" lon="5.9333">
        <ele>317.85</ele>
        <time>2019-03-19T14:31:08Z</time>
      </trkpt>
      <trkpt lat="43.47602" lon="5.93338">
        <ele>318.33</ele>
        <time>2019-03-19T14:31:16Z</time>
      </trkpt>
      <trkpt lat="43.47609" lon="5.93356">
        <ele>318.81</ele>
        <time>2019-03-19T14:31:31Z</time>
      </trkpt>
      <trkpt lat="43.47615" lon="5.93376">
        <ele>318.81</ele>
        <time>2019-03-19T14:31:47Z</time>
      </trkpt>
      <trkpt lat="43.4762" lon="5.93395">
        <ele>318.81</ele>
        <time>2019-03-19T14:32:02Z</time>
      </trkpt>
      <trkpt lat="43.47622" lon="5.93413">
        <ele>318.81</ele>
        <time>2019-03-19T14:32:15Z</time>
      </trkpt>
      <trkpt lat="43.47621" lon="5.93437">
        <ele>318.81</ele>
        <time>2019-03-19T14:32:31Z</time>
      </trkpt>
      <trkpt lat="43.4762" lon="5.93456">
        <ele>318.81</ele>
        <time>2019-03-19T14:32:45Z</time>
      </trkpt>
      <trkpt lat="43.47617" lon="5.93477">
        <ele>317.37</ele>
        <time>2019-03-19T14:33:01Z</time>
      </trkpt>
      <trkpt lat="43.47616" lon="5.93495">
        <ele>316.89</ele>
        <time>2019-03-19T14:33:15Z</time>
      </trkpt>
      <trkpt lat="43.47616" lon="5.93516">
        <ele>316.89</ele>
        <time>2019-03-19T14:33:29Z</time>
      </trkpt>
      <trkpt lat="43.47616" lon="5.93537">
        <ele>318.81</ele>
        <time>2019-03-19T14:33:45Z</time>
      </trkpt>
      <trkpt lat="43.47617" lon="5.93552">
        <ele>320.26</ele>
        <time>2019-03-19T14:33:58Z</time>
      </trkpt>
      <trkpt lat="43.4762" lon="5.93567">
        <ele>320.74</ele>
        <time>2019-03-19T14:34:11Z</time>
      </trkpt>
      <trkpt lat="43.47624" lon="5.93586">
        <ele>321.22</ele>
        <time>2019-03-19T14:34:29Z</time>
      </trkpt>
      <trkpt lat="43.47627" lon="5.93598">
        <ele>319.78</ele>
        <time>2019-03-19T14:34:40Z</time>
      </trkpt>
      <trkpt lat="43.47628" lon="5.93611">
        <ele>319.78</ele>
        <time>2019-03-19T14:34:53Z</time>
      </trkpt>
      <trkpt lat="43.47628" lon="5.93613">
        <ele>319.78</ele>
        <time>2019-03-19T14:34:56Z</time>
      </trkpt>
      <trkpt lat="43.47629" lon="5.93631">
        <ele>318.81</ele>
        <time>2019-03-19T14:35:11Z</time>
      </trkpt>
      <trkpt lat="43.47629" lon="5.93637">
        <ele>318.33</ele>
        <time>2019-03-19T14:35:15Z</time>
      </trkpt>
      <trkpt lat="43.47628" lon="5.93645">
        <ele>318.33</ele>
        <time>2019-03-19T14:35:19Z</time>
      </trkpt>
      <trkpt lat="43.47628" lon="5.93648">
        <ele>318.33</ele>
        <time>2019-03-19T14:35:21Z</time>
      </trkpt>
      <trkpt lat="43.47621" lon="5.93666">
        <ele>316.41</ele>
        <time>2019-03-19T14:35:37Z</time>
      </trkpt>
      <trkpt lat="43.47615" lon="5.9368">
        <ele>316.41</ele>
        <time>2019-03-19T14:35:52Z</time>
      </trkpt>
      <trkpt lat="43.47613" lon="5.93682">
        <ele>315.93</ele>
        <time>2019-03-19T14:36:12Z</time>
      </trkpt>
      <trkpt lat="43.47612" lon="5.93702">
        <ele>316.89</ele>
        <time>2019-03-19T14:36:28Z</time>
      </trkpt>
      <trkpt lat="43.47609" lon="5.93719">
        <ele>318.33</ele>
        <time>2019-03-19T14:36:42Z</time>
      </trkpt>
      <trkpt lat="43.47604" lon="5.93735">
        <ele>319.3</ele>
        <time>2019-03-19T14:36:58Z</time>
      </trkpt>
      <trkpt lat="43.47598" lon="5.93752">
        <ele>321.22</ele>
        <time>2019-03-19T14:37:14Z</time>
      </trkpt>
      <trkpt lat="43.47593" lon="5.93768">
        <ele>321.7</ele>
        <time>2019-03-19T14:37:29Z</time>
      </trkpt>
      <trkpt lat="43.47589" lon="5.93783">
        <ele>322.66</ele>
        <time>2019-03-19T14:37:43Z</time>
      </trkpt>
      <trkpt lat="43.47585" lon="5.93795">
        <ele>323.14</ele>
        <time>2019-03-19T14:37:56Z</time>
      </trkpt>
      <trkpt lat="43.47583" lon="5.93801">
        <ele>323.62</ele>
        <time>2019-03-19T14:38:01Z</time>
      </trkpt>
      <trkpt lat="43.47583" lon="5.93805">
        <ele>324.1</ele>
        <time>2019-03-19T14:38:04Z</time>
      </trkpt>
      <trkpt lat="43.47583" lon="5.93823">
        <ele>325.54</ele>
        <time>2019-03-19T14:38:21Z</time>
      </trkpt>
      <trkpt lat="43.47584" lon="5.93833">
        <ele>326.02</ele>
        <time>2019-03-19T14:38:42Z</time>
      </trkpt>
      <trkpt lat="43.47585" lon="5.93841">
        <ele>326.5</ele>
        <time>2019-03-19T14:38:49Z</time>
      </trkpt>
      <trkpt lat="43.47591" lon="5.93861">
        <ele>327.47</ele>
        <time>2019-03-19T14:39:05Z</time>
      </trkpt>
      <trkpt lat="43.47592" lon="5.93873">
        <ele>327.95</ele>
        <time>2019-03-19T14:39:14Z</time>
      </trkpt>
      <trkpt lat="43.47592" lon="5.93878">
        <ele>327.95</ele>
        <time>2019-03-19T14:39:18Z</time>
      </trkpt>
      <trkpt lat="43.47591" lon="5.93891">
        <ele>328.43</ele>
        <time>2019-03-19T14:39:32Z</time>
      </trkpt>
      <trkpt lat="43.4759" lon="5.93892">
        <ele>328.43</ele>
        <time>2019-03-19T14:39:50Z</time>
      </trkpt>
      <trkpt lat="43.47592" lon="5.9389">
        <ele>328.43</ele>
        <time>2019-03-19T14:40:23Z</time>
      </trkpt>
      <trkpt lat="43.47593" lon="5.9389">
        <ele>328.43</ele>
        <time>2019-03-19T14:40:50Z</time>
      </trkpt>
      <trkpt lat="43.47591" lon="5.93891">
        <ele>327.95</ele>
        <time>2019-03-19T14:41:05Z</time>
      </trkpt>
      <trkpt lat="43.47588" lon="5.93888">
        <ele>327.95</ele>
        <time>2019-03-19T14:41:35Z</time>
      </trkpt>
      <trkpt lat="43.47589" lon="5.93889">
        <ele>327.95</ele>
        <time>2019-03-19T14:42:04Z</time>
      </trkpt>
      <trkpt lat="43.47591" lon="5.93893">
        <ele>327.95</ele>
        <time>2019-03-19T14:42:19Z</time>
      </trkpt>
      <trkpt lat="43.4759" lon="5.93908">
        <ele>327.95</ele>
        <time>2019-03-19T14:42:34Z</time>
      </trkpt>
      <trkpt lat="43.4759" lon="5.93927">
        <ele>328.43</ele>
        <time>2019-03-19T14:42:49Z</time>
      </trkpt>
      <trkpt lat="43.4759" lon="5.93943">
        <ele>328.43</ele>
        <time>2019-03-19T14:43:01Z</time>
      </trkpt>
      <trkpt lat="43.47591" lon="5.93966">
        <ele>328.43</ele>
        <time>2019-03-19T14:43:18Z</time>
      </trkpt>
      <trkpt lat="43.47592" lon="5.93991">
        <ele>326.99</ele>
        <time>2019-03-19T14:43:35Z</time>
      </trkpt>
      <trkpt lat="43.47592" lon="5.93993">
        <ele>326.99</ele>
        <time>2019-03-19T14:43:36Z</time>
      </trkpt>
      <trkpt lat="43.47591" lon="5.94017">
        <ele>326.99</ele>
        <time>2019-03-19T14:43:53Z</time>
      </trkpt>
      <trkpt lat="43.4759" lon="5.94032">
        <ele>326.99</ele>
        <time>2019-03-19T14:44:09Z</time>
      </trkpt>
      <trkpt lat="43.47586" lon="5.94049">
        <ele>326.99</ele>
        <time>2019-03-19T14:44:25Z</time>
      </trkpt>
      <trkpt lat="43.47584" lon="5.94058">
        <ele>326.99</ele>
        <time>2019-03-19T14:44:38Z</time>
      </trkpt>
      <trkpt lat="43.47581" lon="5.94072">
        <ele>326.99</ele>
        <time>2019-03-19T14:44:51Z</time>
      </trkpt>
      <trkpt lat="43.47581" lon="5.94073">
        <ele>326.99</ele>
        <time>2019-03-19T14:44:52Z</time>
      </trkpt>
      <trkpt lat="43.47579" lon="5.94071">
        <ele>326.99</ele>
        <time>2019-03-19T14:44:55Z</time>
      </trkpt>
      <trkpt lat="43.47576" lon="5.94066">
        <ele>326.99</ele>
        <time>2019-03-19T14:45:03Z</time>
      </trkpt>
      <trkpt lat="43.47569" lon="5.9406">
        <ele>326.5</ele>
        <time>2019-03-19T14:45:17Z</time>
      </trkpt>
      <trkpt lat="43.47568" lon="5.94059">
        <ele>326.5</ele>
        <time>2019-03-19T14:45:46Z</time>
      </trkpt>
      <trkpt lat="43.47574" lon="5.94063">
        <ele>326.5</ele>
        <time>2019-03-19T14:45:58Z</time>
      </trkpt>
      <trkpt lat="43.47579" lon="5.94074">
        <ele>326.5</ele>
        <time>2019-03-19T14:46:11Z</time>
      </trkpt>
      <trkpt lat="43.47578" lon="5.94092">
        <ele>326.5</ele>
        <time>2019-03-19T14:46:27Z</time>
      </trkpt>
      <trkpt lat="43.47577" lon="5.94107">
        <ele>326.5</ele>
        <time>2019-03-19T14:46:41Z</time>
      </trkpt>
      <trkpt lat="43.47577" lon="5.94128">
        <ele>326.02</ele>
        <time>2019-03-19T14:46:57Z</time>
      </trkpt>
      <trkpt lat="43.47579" lon="5.94149">
        <ele>326.02</ele>
        <time>2019-03-19T14:47:12Z</time>
      </trkpt>
      <trkpt lat="43.47581" lon="5.94157">
        <ele>325.06</ele>
        <time>2019-03-19T14:47:26Z</time>
      </trkpt>
      <trkpt lat="43.47583" lon="5.94171">
        <ele>324.58</ele>
        <time>2019-03-19T14:47:42Z</time>
      </trkpt>
      <trkpt lat="43.47583" lon="5.94185">
        <ele>323.14</ele>
        <time>2019-03-19T14:47:55Z</time>
      </trkpt>
      <trkpt lat="43.47582" lon="5.94189">
        <ele>322.66</ele>
        <time>2019-03-19T14:48:15Z</time>
      </trkpt>
      <trkpt lat="43.47577" lon="5.94197">
        <ele>320.74</ele>
        <time>2019-03-19T14:48:28Z</time>
      </trkpt>
      <trkpt lat="43.47572" lon="5.94207">
        <ele>319.3</ele>
        <time>2019-03-19T14:48:42Z</time>
      </trkpt>
      <trkpt lat="43.4757" lon="5.94215">
        <ele>318.33</ele>
        <time>2019-03-19T14:48:55Z</time>
      </trkpt>
      <trkpt lat="43.47565" lon="5.94224">
        <ele>317.37</ele>
        <time>2019-03-19T14:49:09Z</time>
      </trkpt>
      <trkpt lat="43.47562" lon="5.94228">
        <ele>316.89</ele>
        <time>2019-03-19T14:49:23Z</time>
      </trkpt>
      <trkpt lat="43.47554" lon="5.94241">
        <ele>314.97</ele>
        <time>2019-03-19T14:49:39Z</time>
      </trkpt>
      <trkpt lat="43.47545" lon="5.94255">
        <ele>313.53</ele>
        <time>2019-03-19T14:49:55Z</time>
      </trkpt>
      <trkpt lat="43.47544" lon="5.94259">
        <ele>313.05</ele>
        <time>2019-03-19T14:49:58Z</time>
      </trkpt>
      <trkpt lat="43.47542" lon="5.94281">
        <ele>310.16</ele>
        <time>2019-03-19T14:50:15Z</time>
      </trkpt>
      <trkpt lat="43.47539" lon="5.94295">
        <ele>308.72</ele>
        <time>2019-03-19T14:50:29Z</time>
      </trkpt>
      <trkpt lat="43.47542" lon="5.9431">
        <ele>306.8</ele>
        <time>2019-03-19T14:50:44Z</time>
      </trkpt>
      <trkpt lat="43.47544" lon="5.9432">
        <ele>306.32</ele>
        <time>2019-03-19T14:51:00Z</time>
      </trkpt>
      <trkpt lat="43.47544" lon="5.94327">
        <ele>305.84</ele>
        <time>2019-03-19T14:51:18Z</time>
      </trkpt>
      <trkpt lat="43.47544" lon="5.9434">
        <ele>304.39</ele>
        <time>2019-03-19T14:51:32Z</time>
      </trkpt>
      <trkpt lat="43.4754" lon="5.94353">
        <ele>302.95</ele>
        <time>2019-03-19T14:51:47Z</time>
      </trkpt>
      <trkpt lat="43.47534" lon="5.94366">
        <ele>301.51</ele>
        <time>2019-03-19T14:52:01Z</time>
      </trkpt>
      <trkpt lat="43.47528" lon="5.94376">
        <ele>300.07</ele>
        <time>2019-03-19T14:52:15Z</time>
      </trkpt>
      <trkpt lat="43.47523" lon="5.94385">
        <ele>299.59</ele>
        <time>2019-03-19T14:52:32Z</time>
      </trkpt>
      <trkpt lat="43.47519" lon="5.94392">
        <ele>298.63</ele>
        <time>2019-03-19T14:52:48Z</time>
      </trkpt>
      <trkpt lat="43.47514" lon="5.94403">
        <ele>297.18</ele>
        <time>2019-03-19T14:53:03Z</time>
      </trkpt>
      <trkpt lat="43.47506" lon="5.94416">
        <ele>296.22</ele>
        <time>2019-03-19T14:53:21Z</time>
      </trkpt>
      <trkpt lat="43.47498" lon="5.94433">
        <ele>294.3</ele>
        <time>2019-03-19T14:53:38Z</time>
      </trkpt>
      <trkpt lat="43.4749" lon="5.94446">
        <ele>292.86</ele>
        <time>2019-03-19T14:53:53Z</time>
      </trkpt>
      <trkpt lat="43.47484" lon="5.94462">
        <ele>291.42</ele>
        <time>2019-03-19T14:54:08Z</time>
      </trkpt>
      <trkpt lat="43.47481" lon="5.94466">
        <ele>290.94</ele>
        <time>2019-03-19T14:54:15Z</time>
      </trkpt>
      <trkpt lat="43.47474" lon="5.94464">
        <ele>290.94</ele>
        <time>2019-03-19T14:54:25Z</time>
      </trkpt>
      <trkpt lat="43.47479" lon="5.94466">
        <ele>290.94</ele>
        <time>2019-03-19T14:54:51Z</time>
      </trkpt>
      <trkpt lat="43.47477" lon="5.94476">
        <ele>290.94</ele>
        <time>2019-03-19T14:55:03Z</time>
      </trkpt>
      <trkpt lat="43.47473" lon="5.94486">
        <ele>289.49</ele>
        <time>2019-03-19T14:55:16Z</time>
      </trkpt>
      <trkpt lat="43.47467" lon="5.94497">
        <ele>288.05</ele>
        <time>2019-03-19T14:55:29Z</time>
      </trkpt>
      <trkpt lat="43.47462" lon="5.94505">
        <ele>287.57</ele>
        <time>2019-03-19T14:55:42Z</time>
      </trkpt>
      <trkpt lat="43.47457" lon="5.94516">
        <ele>286.61</ele>
        <time>2019-03-19T14:55:56Z</time>
      </trkpt>
      <trkpt lat="43.47452" lon="5.94527">
        <ele>285.65</ele>
        <time>2019-03-19T14:56:10Z</time>
      </trkpt>
      <trkpt lat="43.47449" lon="5.9453">
        <ele>285.17</ele>
        <time>2019-03-19T14:56:14Z</time>
      </trkpt>
      <trkpt lat="43.4744" lon="5.94544">
        <ele>283.73</ele>
        <time>2019-03-19T14:56:28Z</time>
      </trkpt>
      <trkpt lat="43.4743" lon="5.94553">
        <ele>281.8</ele>
        <time>2019-03-19T14:56:44Z</time>
      </trkpt>
      <trkpt lat="43.47422" lon="5.94569">
        <ele>280.84</ele>
        <time>2019-03-19T14:57:00Z</time>
      </trkpt>
      <trkpt lat="43.47419" lon="5.94573">
        <ele>280.84</ele>
        <time>2019-03-19T14:57:13Z</time>
      </trkpt>
      <trkpt lat="43.47413" lon="5.9458">
        <ele>279.88</ele>
        <time>2019-03-19T14:57:26Z</time>
      </trkpt>
      <trkpt lat="43.47405" lon="5.9459">
        <ele>277.96</ele>
        <time>2019-03-19T14:57:43Z</time>
      </trkpt>
      <trkpt lat="43.47396" lon="5.94602">
        <ele>277</ele>
        <time>2019-03-19T14:57:58Z</time>
      </trkpt>
      <trkpt lat="43.47386" lon="5.9462">
        <ele>275.07</ele>
        <time>2019-03-19T14:58:14Z</time>
      </trkpt>
      <trkpt lat="43.47378" lon="5.94631">
        <ele>273.15</ele>
        <time>2019-03-19T14:58:31Z</time>
      </trkpt>
      <trkpt lat="43.47368" lon="5.94645">
        <ele>270.75</ele>
        <time>2019-03-19T14:58:46Z</time>
      </trkpt>
      <trkpt lat="43.47358" lon="5.94655">
        <ele>269.31</ele>
        <time>2019-03-19T14:59:00Z</time>
      </trkpt>
      <trkpt lat="43.4735" lon="5.94669">
        <ele>267.86</ele>
        <time>2019-03-19T14:59:14Z</time>
      </trkpt>
      <trkpt lat="43.47342" lon="5.94685">
        <ele>266.42</ele>
        <time>2019-03-19T14:59:30Z</time>
      </trkpt>
      <trkpt lat="43.47335" lon="5.94696">
        <ele>265.94</ele>
        <time>2019-03-19T14:59:44Z</time>
      </trkpt>
      <trkpt lat="43.47327" lon="5.94706">
        <ele>264.5</ele>
        <time>2019-03-19T14:59:59Z</time>
      </trkpt>
      <trkpt lat="43.47328" lon="5.94706">
        <ele>264.5</ele>
        <time>2019-03-19T15:00:25Z</time>
      </trkpt>
      <trkpt lat="43.47321" lon="5.94715">
        <ele>263.54</ele>
        <time>2019-03-19T15:00:45Z</time>
      </trkpt>
      <trkpt lat="43.47313" lon="5.94731">
        <ele>261.62</ele>
        <time>2019-03-19T15:01:02Z</time>
      </trkpt>
      <trkpt lat="43.47307" lon="5.94755">
        <ele>260.65</ele>
        <time>2019-03-19T15:01:21Z</time>
      </trkpt>
      <trkpt lat="43.47304" lon="5.94776">
        <ele>260.17</ele>
        <time>2019-03-19T15:01:37Z</time>
      </trkpt>
      <trkpt lat="43.47302" lon="5.94783">
        <ele>260.17</ele>
        <time>2019-03-19T15:01:43Z</time>
      </trkpt>
      <trkpt lat="43.47301" lon="5.94802">
        <ele>260.17</ele>
        <time>2019-03-19T15:01:58Z</time>
      </trkpt>
      <trkpt lat="43.47299" lon="5.94822">
        <ele>259.69</ele>
        <time>2019-03-19T15:02:14Z</time>
      </trkpt>
      <trkpt lat="43.47298" lon="5.94843">
        <ele>259.21</ele>
        <time>2019-03-19T15:02:31Z</time>
      </trkpt>
      <trkpt lat="43.47291" lon="5.94863">
        <ele>259.21</ele>
        <time>2019-03-19T15:02:49Z</time>
      </trkpt>
      <trkpt lat="43.47288" lon="5.94867">
        <ele>259.21</ele>
        <time>2019-03-19T15:03:05Z</time>
      </trkpt>
      <trkpt lat="43.47287" lon="5.94869">
        <ele>259.21</ele>
        <time>2019-03-19T15:03:25Z</time>
      </trkpt>
      <trkpt lat="43.47286" lon="5.9487">
        <ele>257.77</ele>
        <time>2019-03-19T15:03:59Z</time>
      </trkpt>
      <trkpt lat="43.47289" lon="5.94863">
        <ele>257.29</ele>
        <time>2019-03-19T15:04:34Z</time>
      </trkpt>
      <trkpt lat="43.47291" lon="5.94866">
        <ele>258.73</ele>
        <time>2019-03-19T15:05:02Z</time>
      </trkpt>
      <trkpt lat="43.47292" lon="5.94869">
        <ele>258.73</ele>
        <time>2019-03-19T15:05:31Z</time>
      </trkpt>
      <trkpt lat="43.4729" lon="5.94871">
        <ele>259.21</ele>
        <time>2019-03-19T15:05:51Z</time>
      </trkpt>
      <trkpt lat="43.47289" lon="5.9487">
        <ele>259.69</ele>
        <time>2019-03-19T15:06:15Z</time>
      </trkpt>
      <trkpt lat="43.47287" lon="5.94871">
        <ele>259.69</ele>
        <time>2019-03-19T15:06:50Z</time>
      </trkpt>
      <trkpt lat="43.47286" lon="5.94872">
        <ele>259.69</ele>
        <time>2019-03-19T15:07:18Z</time>
      </trkpt>
      <trkpt lat="43.47283" lon="5.94886">
        <ele>259.69</ele>
        <time>2019-03-19T15:07:32Z</time>
      </trkpt>
      <trkpt lat="43.4728" lon="5.949">
        <ele>260.17</ele>
        <time>2019-03-19T15:07:46Z</time>
      </trkpt>
      <trkpt lat="43.47275" lon="5.94916">
        <ele>260.65</ele>
        <time>2019-03-19T15:08:01Z</time>
      </trkpt>
      <trkpt lat="43.4727" lon="5.94935">
        <ele>260.65</ele>
        <time>2019-03-19T15:08:17Z</time>
      </trkpt>
      <trkpt lat="43.47266" lon="5.94953">
        <ele>260.65</ele>
        <time>2019-03-19T15:08:33Z</time>
      </trkpt>
      <trkpt lat="43.47261" lon="5.94971">
        <ele>260.65</ele>
        <time>2019-03-19T15:08:49Z</time>
      </trkpt>
      <trkpt lat="43.47257" lon="5.94989">
        <ele>259.69</ele>
        <time>2019-03-19T15:09:05Z</time>
      </trkpt>
      <trkpt lat="43.47252" lon="5.95003">
        <ele>259.69</ele>
        <time>2019-03-19T15:09:19Z</time>
      </trkpt>
      <trkpt lat="43.47255" lon="5.95017">
        <ele>259.69</ele>
        <time>2019-03-19T15:09:34Z</time>
      </trkpt>
      <trkpt lat="43.47252" lon="5.95028">
        <ele>259.69</ele>
        <time>2019-03-19T15:09:45Z</time>
      </trkpt>
      <trkpt lat="43.47247" lon="5.95035">
        <ele>259.69</ele>
        <time>2019-03-19T15:09:59Z</time>
      </trkpt>
      <trkpt lat="43.47244" lon="5.95039">
        <ele>259.69</ele>
        <time>2019-03-19T15:10:33Z</time>
      </trkpt>
      <trkpt lat="43.47245" lon="5.95037">
        <ele>260.17</ele>
        <time>2019-03-19T15:10:53Z</time>
      </trkpt>
      <trkpt lat="43.47248" lon="5.95035">
        <ele>260.17</ele>
        <time>2019-03-19T15:11:09Z</time>
      </trkpt>
      <trkpt lat="43.47252" lon="5.95043">
        <ele>260.17</ele>
        <time>2019-03-19T15:11:25Z</time>
      </trkpt>
      <trkpt lat="43.47245" lon="5.9506">
        <ele>260.17</ele>
        <time>2019-03-19T15:11:39Z</time>
      </trkpt>
      <trkpt lat="43.47235" lon="5.95077">
        <ele>260.17</ele>
        <time>2019-03-19T15:11:55Z</time>
      </trkpt>
      <trkpt lat="43.47227" lon="5.95088">
        <ele>259.69</ele>
        <time>2019-03-19T15:12:11Z</time>
      </trkpt>
      <trkpt lat="43.47225" lon="5.95089">
        <ele>259.69</ele>
        <time>2019-03-19T15:12:16Z</time>
      </trkpt>
      <trkpt lat="43.47226" lon="5.95089">
        <ele>259.69</ele>
        <time>2019-03-19T15:12:27Z</time>
      </trkpt>
      <trkpt lat="43.4722" lon="5.95089">
        <ele>258.73</ele>
        <time>2019-03-19T15:12:54Z</time>
      </trkpt>
      <trkpt lat="43.4722" lon="5.95089">
        <ele>258.73</ele>
        <time>2019-03-19T15:13:32Z</time>
      </trkpt>
      <trkpt lat="43.47222" lon="5.95092">
        <ele>258.73</ele>
        <time>2019-03-19T15:14:07Z</time>
      </trkpt>
      <trkpt lat="43.47222" lon="5.95092">
        <ele>259.69</ele>
        <time>2019-03-19T15:14:27Z</time>
      </trkpt>
      <trkpt lat="43.47223" lon="5.9509">
        <ele>259.69</ele>
        <time>2019-03-19T15:14:45Z</time>
      </trkpt>
      <trkpt lat="43.47222" lon="5.95096">
        <ele>259.69</ele>
        <time>2019-03-19T15:14:57Z</time>
      </trkpt>
      <trkpt lat="43.4722" lon="5.95108">
        <ele>259.69</ele>
        <time>2019-03-19T15:15:14Z</time>
      </trkpt>
      <trkpt lat="43.47218" lon="5.95122">
        <ele>260.17</ele>
        <time>2019-03-19T15:15:30Z</time>
      </trkpt>
      <trkpt lat="43.47214" lon="5.95141">
        <ele>260.65</ele>
        <time>2019-03-19T15:15:48Z</time>
      </trkpt>
      <trkpt lat="43.47206" lon="5.95158">
        <ele>260.65</ele>
        <time>2019-03-19T15:16:05Z</time>
      </trkpt>
      <trkpt lat="43.472" lon="5.95182">
        <ele>261.14</ele>
        <time>2019-03-19T15:16:21Z</time>
      </trkpt>
      <trkpt lat="43.47197" lon="5.95202">
        <ele>261.14</ele>
        <time>2019-03-19T15:16:36Z</time>
      </trkpt>
      <trkpt lat="43.47195" lon="5.95219">
        <ele>262.1</ele>
        <time>2019-03-19T15:16:51Z</time>
      </trkpt>
      <trkpt lat="43.47193" lon="5.95235">
        <ele>263.54</ele>
        <time>2019-03-19T15:17:06Z</time>
      </trkpt>
      <trkpt lat="43.47191" lon="5.95245">
        <ele>264.02</ele>
        <time>2019-03-19T15:17:19Z</time>
      </trkpt>
      <trkpt lat="43.47181" lon="5.95252">
        <ele>264.98</ele>
        <time>2019-03-19T15:17:32Z</time>
      </trkpt>
      <trkpt lat="43.47166" lon="5.95254">
        <ele>265.46</ele>
        <time>2019-03-19T15:17:49Z</time>
      </trkpt>
      <trkpt lat="43.47164" lon="5.95254">
        <ele>265.46</ele>
        <time>2019-03-19T15:17:52Z</time>
      </trkpt>
      <trkpt lat="43.47153" lon="5.95252">
        <ele>265.46</ele>
        <time>2019-03-19T15:18:06Z</time>
      </trkpt>
      <trkpt lat="43.47145" lon="5.95253">
        <ele>264.5</ele>
        <time>2019-03-19T15:18:18Z</time>
      </trkpt>
      <trkpt lat="43.47131" lon="5.95252">
        <ele>264.5</ele>
        <time>2019-03-19T15:18:33Z</time>
      </trkpt>
      <trkpt lat="43.4712" lon="5.95251">
        <ele>264.98</ele>
        <time>2019-03-19T15:18:46Z</time>
      </trkpt>
      <trkpt lat="43.47103" lon="5.95239">
        <ele>264.98</ele>
        <time>2019-03-19T15:19:02Z</time>
      </trkpt>
      <trkpt lat="43.47097" lon="5.95233">
        <ele>265.46</ele>
        <time>2019-03-19T15:19:15Z</time>
      </trkpt>
      <trkpt lat="43.4709" lon="5.95229">
        <ele>265.46</ele>
        <time>2019-03-19T15:19:27Z</time>
      </trkpt>
      <trkpt lat="43.47084" lon="5.95222">
        <ele>265.94</ele>
        <time>2019-03-19T15:19:42Z</time>
      </trkpt>
      <trkpt lat="43.47069" lon="5.95213">
        <ele>265.94</ele>
        <time>2019-03-19T15:19:57Z</time>
      </trkpt>
      <trkpt lat="43.4706" lon="5.95207">
        <ele>267.38</ele>
        <time>2019-03-19T15:20:07Z</time>
      </trkpt>
      <trkpt lat="43.47051" lon="5.95206">
        <ele>267.38</ele>
        <time>2019-03-19T15:20:19Z</time>
      </trkpt>
      <trkpt lat="43.47032" lon="5.95204">
        <ele>267.86</ele>
        <time>2019-03-19T15:20:34Z</time>
      </trkpt>
      <trkpt lat="43.47016" lon="5.95207">
        <ele>267.86</ele>
        <time>2019-03-19T15:20:51Z</time>
      </trkpt>
      <trkpt lat="43.47015" lon="5.95205">
        <ele>268.35</ele>
        <time>2019-03-19T15:20:53Z</time>
      </trkpt>
      <trkpt lat="43.47003" lon="5.95193">
        <ele>268.35</ele>
        <time>2019-03-19T15:21:09Z</time>
      </trkpt>
      <trkpt lat="43.47002" lon="5.9519">
        <ele>268.35</ele>
        <time>2019-03-19T15:21:11Z</time>
      </trkpt>
      <trkpt lat="43.46989" lon="5.95172">
        <ele>268.83</ele>
        <time>2019-03-19T15:21:29Z</time>
      </trkpt>
      <trkpt lat="43.46977" lon="5.95153">
        <ele>269.79</ele>
        <time>2019-03-19T15:21:45Z</time>
      </trkpt>
      <trkpt lat="43.4697" lon="5.95143">
        <ele>269.79</ele>
        <time>2019-03-19T15:21:56Z</time>
      </trkpt>
      <trkpt lat="43.46969" lon="5.95127">
        <ele>269.79</ele>
        <time>2019-03-19T15:22:11Z</time>
      </trkpt>
      <trkpt lat="43.4697" lon="5.95124">
        <ele>269.79</ele>
        <time>2019-03-19T15:22:14Z</time>
      </trkpt>
      <trkpt lat="43.46982" lon="5.95111">
        <ele>270.27</ele>
        <time>2019-03-19T15:22:31Z</time>
      </trkpt>
      <trkpt lat="43.46991" lon="5.95097">
        <ele>270.27</ele>
        <time>2019-03-19T15:22:46Z</time>
      </trkpt>
      <trkpt lat="43.46999" lon="5.95093">
        <ele>270.75</ele>
        <time>2019-03-19T15:23:00Z</time>
      </trkpt>
      <trkpt lat="43.47012" lon="5.95094">
        <ele>271.71</ele>
        <time>2019-03-19T15:23:16Z</time>
      </trkpt>
      <trkpt lat="43.47014" lon="5.95095">
        <ele>272.19</ele>
        <time>2019-03-19T15:23:18Z</time>
      </trkpt>
      <trkpt lat="43.47019" lon="5.95098">
        <ele>272.67</ele>
        <time>2019-03-19T15:23:32Z</time>
      </trkpt>
      <trkpt lat="43.47026" lon="5.95087">
        <ele>273.63</ele>
        <time>2019-03-19T15:23:50Z</time>
      </trkpt>
      <trkpt lat="43.47028" lon="5.95084">
        <ele>273.63</ele>
        <time>2019-03-19T15:23:53Z</time>
      </trkpt>
      <trkpt lat="43.47031" lon="5.95068">
        <ele>274.59</ele>
        <time>2019-03-19T15:24:08Z</time>
      </trkpt>
      <trkpt lat="43.47031" lon="5.95067">
        <ele>274.59</ele>
        <time>2019-03-19T15:24:12Z</time>
      </trkpt>
      <trkpt lat="43.47028" lon="5.95066">
        <ele>275.07</ele>
        <time>2019-03-19T15:24:24Z</time>
      </trkpt>
      <trkpt lat="43.47027" lon="5.95065">
        <ele>275.56</ele>
        <time>2019-03-19T15:24:46Z</time>
      </trkpt>
      <trkpt lat="43.47026" lon="5.95063">
        <ele>275.56</ele>
        <time>2019-03-19T15:25:07Z</time>
      </trkpt>
      <trkpt lat="43.47039" lon="5.95042">
        <ele>276.04</ele>
        <time>2019-03-19T15:25:19Z</time>
      </trkpt>
      <trkpt lat="43.47038" lon="5.95038">
        <ele>277</ele>
        <time>2019-03-19T15:25:35Z</time>
      </trkpt>
      <trkpt lat="43.47036" lon="5.95036">
        <ele>277</ele>
        <time>2019-03-19T15:25:56Z</time>
      </trkpt>
      <trkpt lat="43.47036" lon="5.95034">
        <ele>277</ele>
        <time>2019-03-19T15:26:15Z</time>
      </trkpt>
      <trkpt lat="43.47036" lon="5.95035">
        <ele>277</ele>
        <time>2019-03-19T15:26:40Z</time>
      </trkpt>
      <trkpt lat="43.47032" lon="5.95032">
        <ele>277.48</ele>
        <time>2019-03-19T15:26:53Z</time>
      </trkpt>
      <trkpt lat="43.47032" lon="5.95024">
        <ele>278.44</ele>
        <time>2019-03-19T15:27:06Z</time>
      </trkpt>
      <trkpt lat="43.47039" lon="5.95014">
        <ele>277.48</ele>
        <time>2019-03-19T15:27:21Z</time>
      </trkpt>
      <trkpt lat="43.47039" lon="5.95015">
        <ele>277</ele>
        <time>2019-03-19T15:27:48Z</time>
      </trkpt>
      <trkpt lat="43.47043" lon="5.95012">
        <ele>277</ele>
        <time>2019-03-19T15:28:14Z</time>
      </trkpt>
      <trkpt lat="43.47046" lon="5.95011">
        <ele>276.52</ele>
        <time>2019-03-19T15:28:39Z</time>
      </trkpt>
      <trkpt lat="43.47045" lon="5.95012">
        <ele>276.52</ele>
        <time>2019-03-19T15:29:03Z</time>
      </trkpt>
      <trkpt lat="43.47043" lon="5.9501">
        <ele>276.52</ele>
        <time>2019-03-19T15:29:27Z</time>
      </trkpt>
      <trkpt lat="43.47045" lon="5.9501">
        <ele>276.52</ele>
        <time>2019-03-19T15:29:56Z</time>
      </trkpt>
      <trkpt lat="43.47044" lon="5.95011">
        <ele>276.52</ele>
        <time>2019-03-19T15:30:27Z</time>
      </trkpt>
      <trkpt lat="43.47043" lon="5.95011">
        <ele>276.52</ele>
        <time>2019-03-19T15:30:53Z</time>
      </trkpt>
      <trkpt lat="43.47045" lon="5.95013">
        <ele>276.04</ele>
        <time>2019-03-19T15:31:09Z</time>
      </trkpt>
      <trkpt lat="43.47046" lon="5.95016">
        <ele>275.56</ele>
        <time>2019-03-19T15:31:34Z</time>
      </trkpt>
      <trkpt lat="43.47046" lon="5.95017">
        <ele>275.07</ele>
        <time>2019-03-19T15:32:02Z</time>
      </trkpt>
      <trkpt lat="43.47052" lon="5.95016">
        <ele>273.63</ele>
        <time>2019-03-19T15:32:22Z</time>
      </trkpt>
      <trkpt lat="43.4706" lon="5.95016">
        <ele>271.23</ele>
        <time>2019-03-19T15:32:37Z</time>
      </trkpt>
      <trkpt lat="43.47068" lon="5.95018">
        <ele>269.79</ele>
        <time>2019-03-19T15:32:53Z</time>
      </trkpt>
      <trkpt lat="43.47073" lon="5.95024">
        <ele>268.83</ele>
        <time>2019-03-19T15:33:07Z</time>
      </trkpt>
      <trkpt lat="43.47077" lon="5.95024">
        <ele>267.86</ele>
        <time>2019-03-19T15:33:27Z</time>
      </trkpt>
      <trkpt lat="43.47079" lon="5.95026">
        <ele>268.35</ele>
        <time>2019-03-19T15:34:02Z</time>
      </trkpt>
      <trkpt lat="43.4708" lon="5.95025">
        <ele>268.35</ele>
        <time>2019-03-19T15:34:42Z</time>
      </trkpt>
      <trkpt lat="43.47082" lon="5.95025">
        <ele>267.86</ele>
        <time>2019-03-19T15:35:08Z</time>
      </trkpt>
      <trkpt lat="43.4709" lon="5.95025">
        <ele>267.38</ele>
        <time>2019-03-19T15:35:21Z</time>
      </trkpt>
      <trkpt lat="43.471" lon="5.95024">
        <ele>266.9</ele>
        <time>2019-03-19T15:35:37Z</time>
      </trkpt>
      <trkpt lat="43.47105" lon="5.95023">
        <ele>266.9</ele>
        <time>2019-03-19T15:35:53Z</time>
      </trkpt>
      <trkpt lat="43.4712" lon="5.95014">
        <ele>267.38</ele>
        <time>2019-03-19T15:36:10Z</time>
      </trkpt>
      <trkpt lat="43.47121" lon="5.95013">
        <ele>267.38</ele>
        <time>2019-03-19T15:36:11Z</time>
      </trkpt>
      <trkpt lat="43.47127" lon="5.95005">
        <ele>267.38</ele>
        <time>2019-03-19T15:36:20Z</time>
      </trkpt>
      <trkpt lat="43.47127" lon="5.94988">
        <ele>267.38</ele>
        <time>2019-03-19T15:36:35Z</time>
      </trkpt>
      <trkpt lat="43.47125" lon="5.94978">
        <ele>267.38</ele>
        <time>2019-03-19T15:36:45Z</time>
      </trkpt>
      <trkpt lat="43.47123" lon="5.94976">
        <ele>267.38</ele>
        <time>2019-03-19T15:36:48Z</time>
      </trkpt>
      <trkpt lat="43.47117" lon="5.9495">
        <ele>267.38</ele>
        <time>2019-03-19T15:37:07Z</time>
      </trkpt>
      <trkpt lat="43.47117" lon="5.94945">
        <ele>267.38</ele>
        <time>2019-03-19T15:37:11Z</time>
      </trkpt>
      <trkpt lat="43.47123" lon="5.94934">
        <ele>266.9</ele>
        <time>2019-03-19T15:37:25Z</time>
      </trkpt>
      <trkpt lat="43.4713" lon="5.94945">
        <ele>266.9</ele>
        <time>2019-03-19T15:37:43Z</time>
      </trkpt>
      <trkpt lat="43.47135" lon="5.94963">
        <ele>266.9</ele>
        <time>2019-03-19T15:38:00Z</time>
      </trkpt>
      <trkpt lat="43.47145" lon="5.94982">
        <ele>266.9</ele>
        <time>2019-03-19T15:38:17Z</time>
      </trkpt>
      <trkpt lat="43.47156" lon="5.94986">
        <ele>266.9</ele>
        <time>2019-03-19T15:38:30Z</time>
      </trkpt>
      <trkpt lat="43.47157" lon="5.94984">
        <ele>266.9</ele>
        <time>2019-03-19T15:38:45Z</time>
      </trkpt>
      <trkpt lat="43.47159" lon="5.94985">
        <ele>266.9</ele>
        <time>2019-03-19T15:38:59Z</time>
      </trkpt>
      <trkpt lat="43.47162" lon="5.94984">
        <ele>266.9</ele>
        <time>2019-03-19T15:39:12Z</time>
      </trkpt>
      <trkpt lat="43.47168" lon="5.94985">
        <ele>266.42</ele>
        <time>2019-03-19T15:39:29Z</time>
      </trkpt>
      <trkpt lat="43.47183" lon="5.94986">
        <ele>266.42</ele>
        <time>2019-03-19T15:39:45Z</time>
      </trkpt>
      <trkpt lat="43.47196" lon="5.94984">
        <ele>266.42</ele>
        <time>2019-03-19T15:40:02Z</time>
      </trkpt>
      <trkpt lat="43.47208" lon="5.94982">
        <ele>265.94</ele>
        <time>2019-03-19T15:40:17Z</time>
      </trkpt>
      <trkpt lat="43.47211" lon="5.94978">
        <ele>265.94</ele>
        <time>2019-03-19T15:40:29Z</time>
      </trkpt>
      <trkpt lat="43.47215" lon="5.94983">
        <ele>266.42</ele>
        <time>2019-03-19T15:40:45Z</time>
      </trkpt>
      <trkpt lat="43.47219" lon="5.94992">
        <ele>266.42</ele>
        <time>2019-03-19T15:40:59Z</time>
      </trkpt>
      <trkpt lat="43.47223" lon="5.94987">
        <ele>266.42</ele>
        <time>2019-03-19T15:41:31Z</time>
      </trkpt>
      <trkpt lat="43.47221" lon="5.95003">
        <ele>266.42</ele>
        <time>2019-03-19T15:41:45Z</time>
      </trkpt>
      <trkpt lat="43.47221" lon="5.95005">
        <ele>266.42</ele>
        <time>2019-03-19T15:41:46Z</time>
      </trkpt>
      <trkpt lat="43.47223" lon="5.95025">
        <ele>266.42</ele>
        <time>2019-03-19T15:42:01Z</time>
      </trkpt>
      <trkpt lat="43.47223" lon="5.95042">
        <ele>266.9</ele>
        <time>2019-03-19T15:42:14Z</time>
      </trkpt>
      <trkpt lat="43.47222" lon="5.95056">
        <ele>266.9</ele>
        <time>2019-03-19T15:42:28Z</time>
      </trkpt>
      <trkpt lat="43.47222" lon="5.95061">
        <ele>268.35</ele>
        <time>2019-03-19T15:42:44Z</time>
      </trkpt>
      <trkpt lat="43.47222" lon="5.95066">
        <ele>268.35</ele>
        <time>2019-03-19T15:43:13Z</time>
      </trkpt>
      <trkpt lat="43.47223" lon="5.95069">
        <ele>268.83</ele>
        <time>2019-03-19T15:43:43Z</time>
      </trkpt>
      <trkpt lat="43.47227" lon="5.95083">
        <ele>268.83</ele>
        <time>2019-03-19T15:43:58Z</time>
      </trkpt>
      <trkpt lat="43.47231" lon="5.95093">
        <ele>268.83</ele>
        <time>2019-03-19T15:44:11Z</time>
      </trkpt>
      <trkpt lat="43.47235" lon="5.95094">
        <ele>269.31</ele>
        <time>2019-03-19T15:44:25Z</time>
      </trkpt>
      <trkpt lat="43.43976" lon="5.8602">
        <ele>352.94</ele>
        <time>2019-03-19T16:23:34Z</time>
      </trkpt>
      <trkpt lat="43.43964" lon="5.86024">
        <ele>353.42</ele>
        <time>2019-03-19T16:24:08Z</time>
      </trkpt>
    </trkseg>
  </trk>
</gpx>